Time,TemperatureF,DewpointF,PressureIn,WindDirection,WindDirectionDegrees,WindSpeedMPH,WindSpeedGustMPH,Humidity,HourlyPrecipIn,Conditions,Clouds,dailyrainin,SoftwareType,DateUTC
2013-03-24 00:24:00,47.7,27.9,29.21,West,263,0.0,0.0,46,0.00,,---,0.00,VWS V14.00,2013-03-24 07:24:00,
2013-03-24 00:25:00,47.7,27.9,29.20,West,263,0.0,0.0,46,0.00,,---,0.00,VWS V14.00,2013-03-24 07:25:00,
2013-03-24 00:26:00,47.5,27.8,29.20,West,263,0.0,0.0,46,0.00,,---,0.00,VWS V14.00,2013-03-24 07:26:00,
2013-03-24 00:27:00,47.5,27.8,29.20,West,263,0.0,0.0,46,0.00,,---,0.00,VWS V14.00,2013-03-24 07:27:00,
2013-03-24 00:28:00,47.5,27.8,29.20,West,263,0.0,0.0,46,0.00,,---,0.00,VWS V14.00,2013-03-24 07:28:00,
2013-03-24 00:29:00,47.5,27.8,29.20,West,263,0.0,0.0,46,0.00,,---,0.00,VWS V14.00,2013-03-24 07:29:00,
2013-03-24 00:30:00,47.5,27.8,29.21,West,263,0.0,0.0,46,0.00,,---,0.00,VWS V14.00,2013-03-24 07:30:00,
2013-03-24 00:35:00,47.5,27.8,29.21,West,263,0.0,0.0,46,0.00,,---,0.00,VWS V14.00,2013-03-24 07:35:00,
2013-03-24 00:37:00,47.5,27.8,29.20,West,263,0.0,0.0,46,0.00,,---,0.00,VWS V14.00,2013-03-24 07:37:00,
2013-03-24 00:38:00,47.5,27.8,29.20,West,263,0.0,0.0,46,0.00,,---,0.00,VWS V14.00,2013-03-24 07:38:00,
2013-03-24 00:39:00,47.5,27.8,29.20,West,263,0.0,0.0,46,0.00,,---,0.00,VWS V14.00,2013-03-24 07:39:00,
2013-03-24 00:40:00,47.5,27.8,29.20,West,263,0.0,0.0,46,0.00,,---,0.00,VWS V14.00,2013-03-24 07:40:00,
2013-03-24 00:41:00,47.5,27.8,29.21,West,263,0.0,0.0,46,0.00,,---,0.00,VWS V14.00,2013-03-24 07:41:00,
2013-03-24 00:42:00,47.5,27.8,29.20,West,263,0.0,0.0,46,0.00,,---,0.00,VWS V14.00,2013-03-24 07:42:00,
2013-03-24 00:43:00,47.5,27.8,29.20,West,263,0.0,0.0,46,0.00,,---,0.00,VWS V14.00,2013-03-24 07:43:00,
2013-03-24 00:44:00,47.5,27.8,29.20,West,263,0.0,0.0,46,0.00,,---,0.00,VWS V14.00,2013-03-24 07:44:00,
2013-03-24 00:45:00,47.5,27.8,29.20,West,263,0.0,0.0,46,0.00,,---,0.00,VWS V14.00,2013-03-24 07:45:00,
2013-03-24 00:46:00,47.5,27.8,29.20,West,263,0.0,0.0,46,0.00,,---,0.00,VWS V14.00,2013-03-24 07:46:00,
2013-03-24 00:47:00,47.3,27.6,29.21,West,263,0.0,0.0,46,0.00,,---,0.00,VWS V14.00,2013-03-24 07:47:00,
2013-03-24 00:48:00,47.5,27.8,29.20,West,263,0.0,0.0,46,0.00,,---,0.00,VWS V14.00,2013-03-24 07:48:00,
2013-03-24 00:49:00,47.5,27.8,29.20,West,263,0.0,0.0,46,0.00,,---,0.00,VWS V14.00,2013-03-24 07:49:00,
2013-03-24 00:50:00,47.3,27.6,29.20,West,263,0.0,0.0,46,0.00,,---,0.00,VWS V14.00,2013-03-24 07:50:00,
2013-03-24 00:51:00,47.3,27.6,29.20,West,263,0.0,0.0,46,0.00,,---,0.00,VWS V14.00,2013-03-24 07:51:00,
2013-03-24 00:52:00,47.3,27.6,29.20,West,263,0.0,0.0,46,0.00,,---,0.00,VWS V14.00,2013-03-24 07:52:00,
2013-03-24 00:53:00,47.3,27.6,29.21,West,263,0.0,0.0,46,0.00,,---,0.00,VWS V14.00,2013-03-24 07:53:00,
2013-03-24 00:54:00,47.3,27.6,29.20,West,263,0.0,0.0,46,0.00,,---,0.00,VWS V14.00,2013-03-24 07:54:00,
2013-03-24 00:55:00,47.3,27.6,29.20,West,263,0.0,0.0,46,0.00,,---,0.00,VWS V14.00,2013-03-24 07:55:00,
2013-03-24 00:56:00,47.3,27.6,29.20,West,263,0.0,0.0,46,0.00,,---,0.00,VWS V14.00,2013-03-24 07:56:00,
2013-03-24 00:57:00,47.3,27.6,29.20,West,263,0.0,0.0,46,0.00,,---,0.00,VWS V14.00,2013-03-24 07:57:00,
2013-03-24 00:58:00,47.3,27.6,29.20,West,263,0.0,0.0,46,0.00,,---,0.00,VWS V14.00,2013-03-24 07:58:00,
2013-03-24 00:59:00,47.3,27.6,29.21,West,263,0.0,0.0,46,0.00,,---,0.00,VWS V14.00,2013-03-24 07:59:00,
2013-03-24 01:00:00,47.3,27.6,29.20,West,263,0.0,0.0,46,0.00,,---,0.00,VWS V14.00,2013-03-24 08:00:00,
2013-03-24 01:01:00,47.3,27.6,29.20,West,263,0.0,0.0,46,0.00,,---,0.00,VWS V14.00,2013-03-24 08:01:00,
2013-03-24 01:02:00,47.3,27.6,29.20,West,263,0.0,0.0,46,0.00,,---,0.00,VWS V14.00,2013-03-24 08:02:00,
2013-03-24 01:03:00,47.3,27.6,29.20,West,263,0.0,0.0,46,0.00,,---,0.00,VWS V14.00,2013-03-24 08:03:00,
2013-03-24 01:04:00,47.3,28.1,29.21,West,263,0.0,0.0,47,0.00,,---,0.00,VWS V14.00,2013-03-24 08:04:00,
2013-03-24 01:05:00,47.3,27.6,29.20,West,263,0.0,0.0,46,0.00,,---,0.00,VWS V14.00,2013-03-24 08:05:00,
2013-03-24 01:06:00,47.3,27.6,29.20,West,263,0.0,0.0,46,0.00,,---,0.00,VWS V14.00,2013-03-24 08:06:00,
2013-03-24 01:07:00,47.3,27.6,29.20,West,263,0.0,0.0,46,0.00,,---,0.00,VWS V14.00,2013-03-24 08:07:00,
2013-03-24 01:08:00,47.3,28.1,29.20,West,263,0.0,0.0,47,0.00,,---,0.00,VWS V14.00,2013-03-24 08:08:00,
2013-03-24 01:09:00,47.3,28.1,29.20,West,263,0.0,0.0,47,0.00,,---,0.00,VWS V14.00,2013-03-24 08:09:00,
2013-03-24 01:10:00,47.3,27.6,29.21,West,263,0.0,0.0,46,0.00,,---,0.00,VWS V14.00,2013-03-24 08:10:00,
2013-03-24 01:11:00,47.3,28.1,29.20,West,263,0.0,0.0,47,0.00,,---,0.00,VWS V14.00,2013-03-24 08:11:00,
2013-03-24 01:12:00,47.3,28.1,29.20,West,263,0.0,0.0,47,0.00,,---,0.00,VWS V14.00,2013-03-24 08:12:00,
2013-03-24 01:13:00,47.3,28.1,29.20,West,263,0.0,0.0,47,0.00,,---,0.00,VWS V14.00,2013-03-24 08:13:00,
2013-03-24 01:14:00,47.3,28.1,29.20,West,263,0.0,0.0,47,0.00,,---,0.00,VWS V14.00,2013-03-24 08:14:00,
2013-03-24 01:15:00,47.3,28.1,29.20,West,263,0.0,0.0,47,0.00,,---,0.00,VWS V14.00,2013-03-24 08:15:00,
2013-03-24 01:16:00,47.3,27.6,29.21,West,263,0.0,0.0,46,0.00,,---,0.00,VWS V14.00,2013-03-24 08:16:00,
2013-03-24 01:17:00,47.3,27.6,29.20,West,263,0.0,0.0,46,0.00,,---,0.00,VWS V14.00,2013-03-24 08:17:00,
2013-03-24 01:18:00,47.3,27.6,29.20,West,263,0.0,0.0,46,0.00,,---,0.00,VWS V14.00,2013-03-24 08:18:00,
2013-03-24 01:19:00,47.3,27.6,29.20,West,263,0.0,0.0,46,0.00,,---,0.00,VWS V14.00,2013-03-24 08:19:00,
2013-03-24 01:20:00,47.3,27.6,29.20,West,263,0.0,0.0,46,0.00,,---,0.00,VWS V14.00,2013-03-24 08:20:00,
2013-03-24 01:21:00,47.1,26.9,29.21,West,263,0.0,0.0,45,0.00,,---,0.00,VWS V14.00,2013-03-24 08:21:00,
2013-03-24 01:22:00,47.3,27.6,29.20,West,263,0.0,0.0,46,0.00,,---,0.00,VWS V14.00,2013-03-24 08:22:00,
2013-03-24 01:23:00,47.3,27.6,29.20,West,263,0.0,0.0,46,0.00,,---,0.00,VWS V14.00,2013-03-24 08:23:00,
2013-03-24 01:24:00,47.1,27.4,29.20,West,263,0.0,0.0,46,0.00,,---,0.00,VWS V14.00,2013-03-24 08:24:00,
2013-03-24 01:25:00,47.1,27.4,29.20,West,263,0.0,0.0,46,0.00,,---,0.00,VWS V14.00,2013-03-24 08:25:00,
2013-03-24 01:26:00,46.9,26.2,29.21,West,263,0.0,0.0,44,0.00,,---,0.00,VWS V14.00,2013-03-24 08:26:00,
2013-03-24 01:27:00,47.1,27.4,29.20,West,263,0.0,0.0,46,0.00,,---,0.00,VWS V14.00,2013-03-24 08:27:00,
2013-03-24 01:28:00,47.1,26.9,29.20,West,263,0.0,0.0,45,0.00,,---,0.00,VWS V14.00,2013-03-24 08:28:00,
2013-03-24 01:29:00,47.1,26.9,29.20,West,263,0.0,0.0,45,0.00,,---,0.00,VWS V14.00,2013-03-24 08:29:00,
2013-03-24 01:30:00,46.9,26.7,29.20,West,263,0.0,0.0,45,0.00,,---,0.00,VWS V14.00,2013-03-24 08:30:00,
2013-03-24 01:31:00,46.8,25.5,29.21,West,263,0.0,0.0,43,0.00,,---,0.00,VWS V14.00,2013-03-24 08:31:00,
2013-03-24 01:32:00,46.9,26.2,29.20,West,263,0.0,0.0,44,0.00,,---,0.00,VWS V14.00,2013-03-24 08:32:00,
2013-03-24 01:33:00,46.9,26.2,29.20,West,263,0.0,0.0,44,0.00,,---,0.00,VWS V14.00,2013-03-24 08:33:00,
2013-03-24 01:34:00,46.9,26.2,29.20,West,263,0.0,0.0,44,0.00,,---,0.00,VWS V14.00,2013-03-24 08:34:00,
2013-03-24 01:35:00,46.8,26.0,29.20,West,263,0.0,0.0,44,0.00,,---,0.00,VWS V14.00,2013-03-24 08:35:00,
2013-03-24 01:36:00,46.8,26.0,29.20,West,263,0.0,0.0,44,0.00,,---,0.00,VWS V14.00,2013-03-24 08:36:00,
2013-03-24 01:37:00,46.6,25.3,29.21,West,263,0.0,0.0,43,0.00,,---,0.00,VWS V14.00,2013-03-24 08:37:00,
2013-03-24 01:38:00,46.8,25.5,29.20,West,263,0.0,0.0,43,0.00,,---,0.00,VWS V14.00,2013-03-24 08:38:00,
2013-03-24 01:39:00,46.8,25.5,29.20,West,263,0.0,0.0,43,0.00,,---,0.00,VWS V14.00,2013-03-24 08:39:00,
2013-03-24 01:40:00,46.8,25.5,29.20,West,263,0.0,0.0,43,0.00,,---,0.00,VWS V14.00,2013-03-24 08:40:00,
2013-03-24 01:41:00,46.8,25.5,29.20,West,263,0.0,0.0,43,0.00,,---,0.00,VWS V14.00,2013-03-24 08:41:00,
2013-03-24 01:42:00,46.4,25.1,29.21,West,263,0.0,0.0,43,0.00,,---,0.00,VWS V14.00,2013-03-24 08:42:00,
2013-03-24 01:43:00,46.6,25.3,29.20,West,263,0.0,0.0,43,0.00,,---,0.00,VWS V14.00,2013-03-24 08:43:00,
2013-03-24 01:44:00,46.6,25.3,29.20,West,263,0.0,0.0,43,0.00,,---,0.00,VWS V14.00,2013-03-24 08:44:00,
2013-03-24 01:45:00,46.6,25.3,29.20,West,263,0.0,0.0,43,0.00,,---,0.00,VWS V14.00,2013-03-24 08:45:00,
2013-03-24 01:46:00,46.6,25.3,29.20,West,263,0.0,0.0,43,0.00,,---,0.00,VWS V14.00,2013-03-24 08:46:00,
2013-03-24 01:47:00,46.6,25.3,29.20,West,263,0.0,0.0,43,0.00,,---,0.00,VWS V14.00,2013-03-24 08:47:00,
2013-03-24 01:48:00,46.4,25.7,29.21,West,263,0.0,0.0,44,0.00,,---,0.00,VWS V14.00,2013-03-24 08:48:00,
2013-03-24 01:49:00,46.4,25.1,29.20,West,263,0.0,0.0,43,0.00,,---,0.00,VWS V14.00,2013-03-24 08:49:00,
2013-03-24 01:50:00,46.4,25.1,29.20,West,263,0.0,0.0,43,0.00,,---,0.00,VWS V14.00,2013-03-24 08:50:00,
2013-03-24 01:51:00,46.4,25.7,29.20,West,263,0.0,0.0,44,0.00,,---,0.00,VWS V14.00,2013-03-24 08:51:00,
2013-03-24 01:52:00,46.4,25.7,29.20,West,263,0.0,0.0,44,0.00,,---,0.00,VWS V14.00,2013-03-24 08:52:00,
2013-03-24 01:53:00,46.4,25.7,29.20,West,263,0.0,0.0,44,0.00,,---,0.00,VWS V14.00,2013-03-24 08:53:00,
2013-03-24 01:54:00,46.4,26.2,29.21,West,263,0.0,0.0,45,0.00,,---,0.00,VWS V14.00,2013-03-24 08:54:00,
2013-03-24 01:55:00,46.4,25.7,29.20,West,263,0.0,0.0,44,0.00,,---,0.00,VWS V14.00,2013-03-24 08:55:00,
2013-03-24 01:56:00,46.4,25.7,29.20,West,263,0.0,0.0,44,0.00,,---,0.00,VWS V14.00,2013-03-24 08:56:00,
2013-03-24 01:57:00,46.4,25.7,29.20,West,263,0.0,0.0,44,0.00,,---,0.00,VWS V14.00,2013-03-24 08:57:00,
2013-03-24 01:58:00,46.4,25.7,29.20,West,263,0.0,0.0,44,0.00,,---,0.00,VWS V14.00,2013-03-24 08:58:00,
2013-03-24 01:59:00,46.4,26.2,29.20,West,263,0.0,0.0,45,0.00,,---,0.00,VWS V14.00,2013-03-24 08:59:00,
2013-03-24 02:00:00,46.2,26.6,29.21,West,263,0.0,0.0,46,0.00,,---,0.00,VWS V14.00,2013-03-24 09:00:00,
2013-03-24 02:01:00,46.4,26.2,29.20,West,263,0.0,0.0,45,0.00,,---,0.00,VWS V14.00,2013-03-24 09:01:00,
2013-03-24 02:02:00,46.4,26.2,29.20,West,263,0.0,0.0,45,0.00,,---,0.00,VWS V14.00,2013-03-24 09:02:00,
2013-03-24 02:03:00,46.4,26.2,29.20,West,263,0.0,0.0,45,0.00,,---,0.00,VWS V14.00,2013-03-24 09:03:00,
2013-03-24 02:04:00,46.2,26.6,29.20,West,263,0.0,0.0,46,0.00,,---,0.00,VWS V14.00,2013-03-24 09:04:00,
2013-03-24 02:05:00,46.2,26.6,29.20,West,263,0.0,0.0,46,0.00,,---,0.00,VWS V14.00,2013-03-24 09:05:00,
2013-03-24 02:07:00,46.2,26.6,29.20,West,263,0.0,0.0,46,0.00,,---,0.00,VWS V14.00,2013-03-24 09:07:00,
2013-03-24 02:08:00,46.2,26.6,29.20,West,263,0.0,0.0,46,0.00,,---,0.00,VWS V14.00,2013-03-24 09:08:00,
2013-03-24 02:09:00,46.2,27.1,29.20,West,263,0.0,0.0,47,0.00,,---,0.00,VWS V14.00,2013-03-24 09:09:00,
2013-03-24 02:10:00,46.2,27.1,29.20,West,263,0.0,0.0,47,0.00,,---,0.00,VWS V14.00,2013-03-24 09:10:00,
2013-03-24 02:21:00,45.9,26.8,29.21,West,263,0.0,0.0,47,0.00,,---,0.00,VWS V14.00,2013-03-24 09:21:00,
2013-03-24 02:27:00,45.9,26.8,29.20,West,263,0.0,0.0,47,0.00,,---,0.00,VWS V14.00,2013-03-24 09:27:00,
2013-03-24 02:28:00,45.9,26.8,29.20,West,263,0.0,0.0,47,0.00,,---,0.00,VWS V14.00,2013-03-24 09:28:00,
2013-03-24 02:29:00,45.9,26.8,29.20,West,263,0.0,0.0,47,0.00,,---,0.00,VWS V14.00,2013-03-24 09:29:00,
2013-03-24 02:40:00,45.5,26.5,29.21,West,263,0.0,0.0,47,0.00,,---,0.00,VWS V14.00,2013-03-24 09:40:00,
2013-03-24 02:45:00,45.5,26.5,29.21,West,263,0.0,0.0,47,0.00,,---,0.00,VWS V14.00,2013-03-24 09:45:00,
2013-03-24 02:46:00,45.5,26.5,29.20,West,263,0.0,0.0,47,0.00,,---,0.00,VWS V14.00,2013-03-24 09:46:00,
2013-03-24 02:47:00,45.5,26.5,29.20,West,263,0.0,0.0,47,0.00,,---,0.00,VWS V14.00,2013-03-24 09:47:00,
2013-03-24 02:48:00,45.5,26.5,29.20,West,263,0.0,0.0,47,0.00,,---,0.00,VWS V14.00,2013-03-24 09:48:00,
2013-03-24 02:49:00,45.5,26.5,29.20,West,263,0.0,0.0,47,0.00,,---,0.00,VWS V14.00,2013-03-24 09:49:00,
2013-03-24 02:50:00,45.3,26.3,29.21,West,263,0.0,0.0,47,0.00,,---,0.00,VWS V14.00,2013-03-24 09:50:00,
2013-03-24 02:51:00,45.5,26.5,29.20,West,263,0.0,0.0,47,0.00,,---,0.00,VWS V14.00,2013-03-24 09:51:00,
2013-03-24 02:52:00,45.5,26.5,29.20,West,263,0.0,0.0,47,0.00,,---,0.00,VWS V14.00,2013-03-24 09:52:00,
2013-03-24 02:53:00,45.3,26.3,29.20,West,263,0.0,0.0,47,0.00,,---,0.00,VWS V14.00,2013-03-24 09:53:00,
2013-03-24 02:54:00,45.3,26.3,29.20,West,263,0.0,0.0,47,0.00,,---,0.00,VWS V14.00,2013-03-24 09:54:00,
2013-03-24 02:55:00,45.3,26.8,29.21,West,263,0.0,0.0,48,0.00,,---,0.00,VWS V14.00,2013-03-24 09:55:00,
2013-03-24 02:56:00,45.3,26.3,29.20,West,263,0.0,0.0,47,0.00,,---,0.00,VWS V14.00,2013-03-24 09:56:00,
2013-03-24 02:57:00,45.3,26.3,29.20,West,263,0.0,0.0,47,0.00,,---,0.00,VWS V14.00,2013-03-24 09:57:00,
2013-03-24 02:58:00,45.3,26.3,29.20,West,263,0.0,0.0,47,0.00,,---,0.00,VWS V14.00,2013-03-24 09:58:00,
2013-03-24 02:59:00,45.3,26.3,29.20,West,263,0.0,0.0,47,0.00,,---,0.00,VWS V14.00,2013-03-24 09:59:00,
2013-03-24 03:00:00,45.5,27.0,29.21,West,263,0.0,0.0,48,0.00,,---,0.00,VWS V14.00,2013-03-24 10:00:00,
2013-03-24 03:01:00,45.3,26.8,29.20,West,263,0.0,0.0,48,0.00,,---,0.00,VWS V14.00,2013-03-24 10:01:00,
2013-03-24 03:02:00,45.3,26.8,29.20,West,263,0.0,0.0,48,0.00,,---,0.00,VWS V14.00,2013-03-24 10:02:00,
2013-03-24 03:03:00,45.3,26.8,29.20,West,263,0.0,0.0,48,0.00,,---,0.00,VWS V14.00,2013-03-24 10:03:00,
2013-03-24 03:04:00,45.5,27.0,29.20,West,263,0.0,0.0,48,0.00,,---,0.00,VWS V14.00,2013-03-24 10:04:00,
2013-03-24 03:05:00,45.5,27.0,29.21,West,263,0.0,0.0,48,0.00,,---,0.00,VWS V14.00,2013-03-24 10:05:00,
2013-03-24 03:06:00,45.5,27.0,29.20,West,263,0.0,0.0,48,0.00,,---,0.00,VWS V14.00,2013-03-24 10:06:00,
2013-03-24 03:07:00,45.5,27.0,29.20,West,263,0.0,0.0,48,0.00,,---,0.00,VWS V14.00,2013-03-24 10:07:00,
2013-03-24 03:08:00,45.5,27.0,29.20,West,263,0.0,0.0,48,0.00,,---,0.00,VWS V14.00,2013-03-24 10:08:00,
2013-03-24 03:09:00,45.5,27.0,29.20,West,263,0.0,0.0,48,0.00,,---,0.00,VWS V14.00,2013-03-24 10:09:00,
2013-03-24 03:10:00,45.5,27.0,29.20,West,263,0.0,0.0,48,0.00,,---,0.00,VWS V14.00,2013-03-24 10:10:00,
2013-03-24 03:11:00,45.5,27.0,29.20,West,263,0.0,0.0,48,0.00,,---,0.00,VWS V14.00,2013-03-24 10:11:00,
2013-03-24 03:12:00,45.1,26.6,29.21,West,263,0.0,0.0,48,0.00,,---,0.00,VWS V14.00,2013-03-24 10:12:00,
2013-03-24 03:13:00,45.3,26.8,29.20,West,263,0.0,0.0,48,0.00,,---,0.00,VWS V14.00,2013-03-24 10:13:00,
2013-03-24 03:14:00,45.3,26.8,29.20,West,263,0.0,0.0,48,0.00,,---,0.00,VWS V14.00,2013-03-24 10:14:00,
2013-03-24 03:15:00,45.3,26.8,29.20,West,263,0.0,0.0,48,0.00,,---,0.00,VWS V14.00,2013-03-24 10:15:00,
2013-03-24 03:16:00,45.3,26.8,29.20,West,263,0.0,0.0,48,0.00,,---,0.00,VWS V14.00,2013-03-24 10:16:00,
2013-03-24 03:17:00,45.3,26.8,29.20,West,263,0.0,0.0,48,0.00,,---,0.00,VWS V14.00,2013-03-24 10:17:00,
2013-03-24 03:18:00,45.0,26.5,29.21,West,263,0.0,0.0,48,0.00,,---,0.00,VWS V14.00,2013-03-24 10:18:00,
2013-03-24 03:19:00,45.1,26.6,29.20,West,263,0.0,0.0,48,0.00,,---,0.00,VWS V14.00,2013-03-24 10:19:00,
2013-03-24 03:20:00,45.1,26.6,29.20,West,263,0.0,0.0,48,0.00,,---,0.00,VWS V14.00,2013-03-24 10:20:00,
2013-03-24 03:21:00,45.1,26.6,29.20,West,263,0.0,0.0,48,0.00,,---,0.00,VWS V14.00,2013-03-24 10:21:00,
2013-03-24 03:22:00,45.1,26.6,29.20,West,263,0.0,0.0,48,0.00,,---,0.00,VWS V14.00,2013-03-24 10:22:00,
2013-03-24 03:23:00,45.0,26.5,29.21,West,263,0.0,0.0,48,0.00,,---,0.00,VWS V14.00,2013-03-24 10:23:00,
2013-03-24 03:24:00,45.0,26.5,29.20,West,263,0.0,0.0,48,0.00,,---,0.00,VWS V14.00,2013-03-24 10:24:00,
2013-03-24 03:25:00,45.0,26.5,29.20,West,263,0.0,0.0,48,0.00,,---,0.00,VWS V14.00,2013-03-24 10:25:00,
2013-03-24 03:26:00,45.0,26.5,29.20,West,263,0.0,0.0,48,0.00,,---,0.00,VWS V14.00,2013-03-24 10:26:00,
2013-03-24 03:27:00,45.0,26.5,29.20,West,263,0.0,0.0,48,0.00,,---,0.00,VWS V14.00,2013-03-24 10:27:00,
2013-03-24 03:28:00,44.8,26.3,29.21,West,263,0.0,0.0,48,0.00,,---,0.00,VWS V14.00,2013-03-24 10:28:00,
2013-03-24 03:29:00,45.0,26.5,29.20,West,263,0.0,0.0,48,0.00,,---,0.00,VWS V14.00,2013-03-24 10:29:00,
2013-03-24 03:30:00,45.0,26.5,29.20,West,263,0.0,0.0,48,0.00,,---,0.00,VWS V14.00,2013-03-24 10:30:00,
2013-03-24 03:31:00,45.0,26.5,29.20,West,263,0.0,0.0,48,0.00,,---,0.00,VWS V14.00,2013-03-24 10:31:00,
2013-03-24 03:32:00,45.0,26.5,29.20,West,263,0.0,0.0,48,0.00,,---,0.00,VWS V14.00,2013-03-24 10:32:00,
2013-03-24 03:33:00,45.0,26.5,29.20,West,263,0.0,0.0,48,0.00,,---,0.00,VWS V14.00,2013-03-24 10:33:00,
2013-03-24 03:34:00,44.6,26.1,29.21,West,263,0.0,0.0,48,0.00,,---,0.00,VWS V14.00,2013-03-24 10:34:00,
2013-03-24 03:35:00,44.8,26.3,29.20,West,263,0.0,0.0,48,0.00,,---,0.00,VWS V14.00,2013-03-24 10:35:00,
2013-03-24 03:36:00,44.8,26.3,29.20,West,263,0.0,0.0,48,0.00,,---,0.00,VWS V14.00,2013-03-24 10:36:00,
2013-03-24 03:37:00,44.8,26.3,29.20,West,263,0.0,0.0,48,0.00,,---,0.00,VWS V14.00,2013-03-24 10:37:00,
2013-03-24 03:38:00,44.8,26.3,29.20,West,263,0.0,0.0,48,0.00,,---,0.00,VWS V14.00,2013-03-24 10:38:00,
2013-03-24 03:39:00,44.8,26.3,29.20,West,263,0.0,0.0,48,0.00,,---,0.00,VWS V14.00,2013-03-24 10:39:00,
2013-03-24 03:40:00,44.6,26.1,29.21,West,263,0.0,0.0,48,0.00,,---,0.00,VWS V14.00,2013-03-24 10:40:00,
2013-03-24 03:41:00,44.6,26.1,29.20,West,263,0.0,0.0,48,0.00,,---,0.00,VWS V14.00,2013-03-24 10:41:00,
2013-03-24 03:43:00,44.6,26.1,29.20,West,263,0.0,0.0,48,0.00,,---,0.00,VWS V14.00,2013-03-24 10:43:00,
2013-03-24 03:44:00,44.6,26.1,29.20,West,263,0.0,0.0,48,0.00,,---,0.00,VWS V14.00,2013-03-24 10:44:00,
2013-03-24 03:45:00,44.6,26.1,29.20,West,263,0.0,0.0,48,0.00,,---,0.00,VWS V14.00,2013-03-24 10:45:00,
2013-03-24 03:46:00,44.6,26.1,29.20,West,263,0.0,0.0,48,0.00,,---,0.00,VWS V14.00,2013-03-24 10:46:00,
2013-03-24 03:47:00,44.4,26.5,29.21,West,263,0.0,0.0,49,0.00,,---,0.00,VWS V14.00,2013-03-24 10:47:00,
2013-03-24 03:48:00,44.4,26.5,29.20,West,263,0.0,0.0,49,0.00,,---,0.00,VWS V14.00,2013-03-24 10:48:00,
2013-03-24 03:49:00,44.4,26.5,29.20,West,263,0.0,0.0,49,0.00,,---,0.00,VWS V14.00,2013-03-24 10:49:00,
2013-03-24 03:50:00,44.4,26.5,29.20,West,263,0.0,0.0,49,0.00,,---,0.00,VWS V14.00,2013-03-24 10:50:00,
2013-03-24 03:51:00,44.4,26.5,29.20,West,263,0.0,0.0,49,0.00,,---,0.00,VWS V14.00,2013-03-24 10:51:00,
2013-03-24 03:52:00,44.4,26.5,29.21,West,263,0.0,0.0,49,0.00,,---,0.00,VWS V14.00,2013-03-24 10:52:00,
2013-03-24 03:53:00,44.4,26.5,29.20,West,263,0.0,0.0,49,0.00,,---,0.00,VWS V14.00,2013-03-24 10:53:00,
2013-03-24 03:54:00,44.4,26.5,29.20,West,263,0.0,0.0,49,0.00,,---,0.00,VWS V14.00,2013-03-24 10:54:00,
2013-03-24 03:55:00,44.4,26.5,29.20,West,263,0.0,0.0,49,0.00,,---,0.00,VWS V14.00,2013-03-24 10:55:00,
2013-03-24 03:56:00,44.4,26.5,29.20,West,263,0.0,0.0,49,0.00,,---,0.00,VWS V14.00,2013-03-24 10:56:00,
2013-03-24 03:57:00,44.4,26.5,29.20,West,263,0.0,0.0,49,0.00,,---,0.00,VWS V14.00,2013-03-24 10:57:00,
2013-03-24 03:58:00,44.4,27.0,29.21,West,263,0.0,0.0,50,0.00,,---,0.00,VWS V14.00,2013-03-24 10:58:00,
2013-03-24 03:59:00,44.4,26.5,29.20,West,263,0.0,0.0,49,0.00,,---,0.00,VWS V14.00,2013-03-24 10:59:00,
2013-03-24 04:02:00,44.4,27.0,29.20,West,263,0.0,0.0,50,0.00,,---,0.00,VWS V14.00,2013-03-24 11:02:00,
2013-03-24 04:03:00,44.4,27.0,29.20,West,263,0.0,0.0,50,0.00,,---,0.00,VWS V14.00,2013-03-24 11:03:00,
2013-03-24 04:04:00,44.6,27.1,29.21,West,263,0.0,0.0,50,0.00,,---,0.00,VWS V14.00,2013-03-24 11:04:00,
2013-03-24 04:05:00,44.4,27.0,29.20,West,263,0.0,0.0,50,0.00,,---,0.00,VWS V14.00,2013-03-24 11:05:00,
2013-03-24 04:06:00,44.4,27.0,29.20,West,263,0.0,0.0,50,0.00,,---,0.00,VWS V14.00,2013-03-24 11:06:00,
2013-03-24 04:07:00,44.4,27.0,29.20,West,263,0.0,0.0,50,0.00,,---,0.00,VWS V14.00,2013-03-24 11:07:00,
2013-03-24 04:08:00,44.4,27.0,29.20,West,263,0.0,0.0,50,0.00,,---,0.00,VWS V14.00,2013-03-24 11:08:00,
2013-03-24 04:09:00,44.6,27.1,29.21,West,263,0.0,0.0,50,0.00,,---,0.00,VWS V14.00,2013-03-24 11:09:00,
2013-03-24 04:10:00,44.6,27.1,29.20,West,263,0.0,0.0,50,0.00,,---,0.00,VWS V14.00,2013-03-24 11:10:00,
2013-03-24 04:11:00,44.6,27.1,29.20,West,263,0.0,0.0,50,0.00,,---,0.00,VWS V14.00,2013-03-24 11:11:00,
2013-03-24 04:12:00,44.6,27.1,29.20,West,263,0.0,0.0,50,0.00,,---,0.00,VWS V14.00,2013-03-24 11:12:00,
2013-03-24 04:13:00,44.6,27.1,29.20,West,263,0.0,0.0,50,0.00,,---,0.00,VWS V14.00,2013-03-24 11:13:00,
2013-03-24 04:14:00,44.6,27.1,29.21,West,263,0.0,0.0,50,0.00,,---,0.00,VWS V14.00,2013-03-24 11:14:00,
2013-03-24 04:15:00,44.6,27.1,29.20,West,263,0.0,0.0,50,0.00,,---,0.00,VWS V14.00,2013-03-24 11:15:00,
2013-03-24 04:16:00,44.6,27.1,29.20,West,263,0.0,0.0,50,0.00,,---,0.00,VWS V14.00,2013-03-24 11:16:00,
2013-03-24 04:17:00,44.6,27.1,29.20,West,263,0.0,0.0,50,0.00,,---,0.00,VWS V14.00,2013-03-24 11:17:00,
2013-03-24 04:18:00,44.6,27.1,29.20,West,263,0.0,0.0,50,0.00,,---,0.00,VWS V14.00,2013-03-24 11:18:00,
2013-03-24 04:19:00,44.6,27.1,29.20,West,263,0.0,0.0,50,0.00,,---,0.00,VWS V14.00,2013-03-24 11:19:00,
2013-03-24 04:20:00,44.6,27.6,29.21,West,263,0.0,0.0,51,0.00,,---,0.00,VWS V14.00,2013-03-24 11:20:00,
2013-03-24 04:21:00,44.6,27.1,29.20,West,263,0.0,0.0,50,0.00,,---,0.00,VWS V14.00,2013-03-24 11:21:00,
2013-03-24 04:22:00,44.4,27.4,29.20,West,263,0.0,0.0,51,0.00,,---,0.00,VWS V14.00,2013-03-24 11:22:00,
2013-03-24 04:23:00,44.4,27.4,29.20,West,263,0.0,0.0,51,0.00,,---,0.00,VWS V14.00,2013-03-24 11:23:00,
2013-03-24 04:24:00,44.4,27.4,29.20,West,263,0.0,0.0,51,0.00,,---,0.00,VWS V14.00,2013-03-24 11:24:00,
2013-03-24 04:25:00,44.4,27.4,29.20,West,263,0.0,0.0,51,0.00,,---,0.00,VWS V14.00,2013-03-24 11:25:00,
2013-03-24 04:26:00,44.8,27.8,29.18,SSE,164,0.0,0.0,51,0.00,,---,0.00,VWS V14.00,2013-03-24 11:26:00,
2013-03-24 04:27:00,44.6,27.6,29.20,West,263,0.0,0.0,51,0.00,,---,0.00,VWS V14.00,2013-03-24 11:27:00,
2013-03-24 04:28:00,44.6,27.6,29.20,West,263,0.0,0.0,51,0.00,,---,0.00,VWS V14.00,2013-03-24 11:28:00,
2013-03-24 04:29:00,44.6,27.6,29.20,West,263,0.0,0.0,51,0.00,,---,0.00,VWS V14.00,2013-03-24 11:29:00,
2013-03-24 04:30:00,44.6,27.6,29.20,SSE,164,0.0,0.0,51,0.00,,---,0.00,VWS V14.00,2013-03-24 11:30:00,
2013-03-24 04:31:00,44.6,27.6,29.20,SSE,164,0.0,0.0,51,0.00,,---,0.00,VWS V14.00,2013-03-24 11:31:00,
2013-03-24 04:32:00,44.8,28.2,29.18,SSE,164,0.0,0.0,52,0.00,,---,0.00,VWS V14.00,2013-03-24 11:32:00,
2013-03-24 04:33:00,44.8,27.8,29.18,SSE,164,0.0,0.0,51,0.00,,---,0.00,VWS V14.00,2013-03-24 11:33:00,
2013-03-24 04:34:00,44.8,27.8,29.18,SSE,164,0.0,0.0,51,0.00,,---,0.00,VWS V14.00,2013-03-24 11:34:00,
2013-03-24 04:35:00,44.8,27.8,29.18,SSE,164,0.0,0.0,51,0.00,,---,0.00,VWS V14.00,2013-03-24 11:35:00,
2013-03-24 04:36:00,44.8,28.2,29.18,SSE,164,0.0,0.0,52,0.00,,---,0.00,VWS V14.00,2013-03-24 11:36:00,
2013-03-24 04:37:00,44.8,28.2,29.18,SSE,164,0.0,0.0,52,0.00,,---,0.00,VWS V14.00,2013-03-24 11:37:00,
2013-03-24 04:38:00,44.8,28.2,29.18,SSE,164,0.0,0.0,52,0.00,,---,0.00,VWS V14.00,2013-03-24 11:38:00,
2013-03-24 04:39:00,44.8,28.2,29.18,SSE,164,0.0,0.0,52,0.00,,---,0.00,VWS V14.00,2013-03-24 11:39:00,
2013-03-24 04:40:00,44.8,28.2,29.18,SSE,164,0.0,0.0,52,0.00,,---,0.00,VWS V14.00,2013-03-24 11:40:00,
2013-03-24 04:41:00,44.8,28.2,29.18,SSE,164,0.0,0.0,52,0.00,,---,0.00,VWS V14.00,2013-03-24 11:41:00,
2013-03-24 04:42:00,44.8,28.2,29.18,SSE,164,0.0,0.0,52,0.00,,---,0.00,VWS V14.00,2013-03-24 11:42:00,
2013-03-24 04:43:00,44.8,28.2,29.18,SSE,164,0.0,0.0,52,0.00,,---,0.00,VWS V14.00,2013-03-24 11:43:00,
2013-03-24 04:44:00,44.8,28.2,29.18,SSE,164,0.0,0.0,52,0.00,,---,0.00,VWS V14.00,2013-03-24 11:44:00,
2013-03-24 04:45:00,44.8,28.2,29.18,SSE,164,0.0,0.0,52,0.00,,---,0.00,VWS V14.00,2013-03-24 11:45:00,
2013-03-24 04:46:00,44.8,28.2,29.18,SSE,164,0.0,0.0,52,0.00,,---,0.00,VWS V14.00,2013-03-24 11:46:00,
2013-03-24 04:47:00,44.8,28.2,29.18,SSE,164,0.0,0.0,52,0.00,,---,0.00,VWS V14.00,2013-03-24 11:47:00,
2013-03-24 04:48:00,44.6,28.1,29.18,SSE,164,0.0,0.0,52,0.00,,---,0.00,VWS V14.00,2013-03-24 11:48:00,
2013-03-24 04:49:00,44.8,28.2,29.18,SSE,164,0.0,0.0,52,0.00,,---,0.00,VWS V14.00,2013-03-24 11:49:00,
2013-03-24 04:50:00,44.8,28.2,29.18,SSE,164,0.0,0.0,52,0.00,,---,0.00,VWS V14.00,2013-03-24 11:50:00,
2013-03-24 04:51:00,44.8,28.2,29.18,SSE,164,0.0,0.0,52,0.00,,---,0.00,VWS V14.00,2013-03-24 11:51:00,
2013-03-24 04:52:00,44.8,28.2,29.18,SSE,164,0.0,0.0,52,0.00,,---,0.00,VWS V14.00,2013-03-24 11:52:00,
2013-03-24 04:53:00,44.6,28.5,29.18,SSE,164,0.0,0.0,53,0.00,,---,0.00,VWS V14.00,2013-03-24 11:53:00,
2013-03-24 04:54:00,44.6,28.1,29.18,SSE,164,0.0,0.0,52,0.00,,---,0.00,VWS V14.00,2013-03-24 11:54:00,
2013-03-24 04:55:00,44.6,28.5,29.18,SSE,164,0.0,0.0,53,0.00,,---,0.00,VWS V14.00,2013-03-24 11:55:00,
2013-03-24 04:56:00,44.6,28.5,29.18,SSE,164,0.0,0.0,53,0.00,,---,0.00,VWS V14.00,2013-03-24 11:56:00,
2013-03-24 04:57:00,44.6,28.5,29.18,SSE,164,0.0,0.0,53,0.00,,---,0.00,VWS V14.00,2013-03-24 11:57:00,
2013-03-24 04:58:00,44.6,28.5,29.21,SSE,164,0.0,0.0,53,0.00,,---,0.00,VWS V14.00,2013-03-24 11:58:00,
2013-03-24 04:59:00,44.6,28.5,29.18,SSE,164,0.0,0.0,53,0.00,,---,0.00,VWS V14.00,2013-03-24 11:59:00,
2013-03-24 05:01:00,44.6,28.5,29.20,SSE,164,0.0,0.0,53,0.00,,---,0.00,VWS V14.00,2013-03-24 12:01:00,
2013-03-24 05:02:00,44.6,28.5,29.20,SSE,164,0.0,0.0,53,0.00,,---,0.00,VWS V14.00,2013-03-24 12:02:00,
2013-03-24 05:03:00,44.6,28.5,29.20,SSE,164,0.0,0.0,53,0.00,,---,0.00,VWS V14.00,2013-03-24 12:03:00,
2013-03-24 05:04:00,44.6,29.0,29.21,SSE,164,0.0,0.0,54,0.00,,---,0.00,VWS V14.00,2013-03-24 12:04:00,
2013-03-24 05:05:00,44.6,28.5,29.20,SSE,164,0.0,0.0,53,0.00,,---,0.00,VWS V14.00,2013-03-24 12:05:00,
2013-03-24 05:06:00,44.6,28.5,29.20,SSE,164,0.0,0.0,53,0.00,,---,0.00,VWS V14.00,2013-03-24 12:06:00,
2013-03-24 05:07:00,44.6,28.5,29.20,SSE,164,0.0,0.0,53,0.00,,---,0.00,VWS V14.00,2013-03-24 12:07:00,
2013-03-24 05:08:00,44.6,28.5,29.20,SSE,164,0.0,0.0,53,0.00,,---,0.00,VWS V14.00,2013-03-24 12:08:00,
2013-03-24 05:09:00,44.6,28.5,29.20,SSE,164,0.0,0.0,53,0.00,,---,0.00,VWS V14.00,2013-03-24 12:09:00,
2013-03-24 05:10:00,44.6,29.0,29.21,SSE,164,0.0,0.0,54,0.00,,---,0.00,VWS V14.00,2013-03-24 12:10:00,
2013-03-24 05:11:00,44.6,29.0,29.20,SSE,164,0.0,0.0,54,0.00,,---,0.00,VWS V14.00,2013-03-24 12:11:00,
2013-03-24 05:12:00,44.6,29.0,29.20,SSE,164,0.0,0.0,54,0.00,,---,0.00,VWS V14.00,2013-03-24 12:12:00,
2013-03-24 05:13:00,44.6,29.0,29.20,SSE,164,0.0,0.0,54,0.00,,---,0.00,VWS V14.00,2013-03-24 12:13:00,
2013-03-24 05:14:00,44.6,29.0,29.20,SSE,164,0.0,0.0,54,0.00,,---,0.00,VWS V14.00,2013-03-24 12:14:00,
2013-03-24 05:15:00,44.6,29.0,29.20,SSE,164,0.0,0.0,54,0.00,,---,0.00,VWS V14.00,2013-03-24 12:15:00,
2013-03-24 05:16:00,44.4,29.3,29.21,SSE,164,0.0,0.0,55,0.00,,---,0.00,VWS V14.00,2013-03-24 12:16:00,
2013-03-24 05:17:00,44.6,29.0,29.20,SSE,164,0.0,0.0,54,0.00,,---,0.00,VWS V14.00,2013-03-24 12:17:00,
2013-03-24 05:18:00,44.6,29.0,29.20,SSE,164,0.0,0.0,54,0.00,,---,0.00,VWS V14.00,2013-03-24 12:18:00,
2013-03-24 05:19:00,44.6,29.0,29.20,SSE,164,0.0,0.0,54,0.00,,---,0.00,VWS V14.00,2013-03-24 12:19:00,
2013-03-24 05:20:00,44.6,29.0,29.20,SSE,164,0.0,0.0,54,0.00,,---,0.00,VWS V14.00,2013-03-24 12:20:00,
2013-03-24 05:21:00,44.4,29.3,29.21,SSE,164,0.0,0.0,55,0.00,,---,0.00,VWS V14.00,2013-03-24 12:21:00,
2013-03-24 05:22:00,44.4,29.3,29.20,SSE,164,0.0,0.0,55,0.00,,---,0.00,VWS V14.00,2013-03-24 12:22:00,
2013-03-24 05:23:00,44.4,29.3,29.20,SSE,164,0.0,0.0,55,0.00,,---,0.00,VWS V14.00,2013-03-24 12:23:00,
2013-03-24 05:24:00,44.4,29.3,29.20,SSE,164,0.0,0.0,55,0.00,,---,0.00,VWS V14.00,2013-03-24 12:24:00,
2013-03-24 05:25:00,44.4,29.3,29.20,SSE,164,0.0,0.0,55,0.00,,---,0.00,VWS V14.00,2013-03-24 12:25:00,
2013-03-24 05:26:00,44.4,29.3,29.20,SSE,164,0.0,0.0,55,0.00,,---,0.00,VWS V14.00,2013-03-24 12:26:00,
2013-03-24 05:27:00,44.2,29.1,29.21,SSE,164,0.0,0.0,55,0.00,,---,0.00,VWS V14.00,2013-03-24 12:27:00,
2013-03-24 05:28:00,44.4,29.3,29.20,SSE,164,0.0,0.0,55,0.00,,---,0.00,VWS V14.00,2013-03-24 12:28:00,
2013-03-24 05:29:00,44.4,29.3,29.20,SSE,164,0.0,0.0,55,0.00,,---,0.00,VWS V14.00,2013-03-24 12:29:00,
2013-03-24 05:30:00,44.4,29.3,29.20,SSE,164,0.0,0.0,55,0.00,,---,0.00,VWS V14.00,2013-03-24 12:30:00,
2013-03-24 05:31:00,44.4,29.3,29.20,SSE,164,0.0,0.0,55,0.00,,---,0.00,VWS V14.00,2013-03-24 12:31:00,
2013-03-24 05:32:00,44.2,29.1,29.21,SSE,164,0.0,0.0,55,0.00,,---,0.00,VWS V14.00,2013-03-24 12:32:00,
2013-03-24 05:33:00,44.2,29.1,29.20,SSE,164,0.0,0.0,55,0.00,,---,0.00,VWS V14.00,2013-03-24 12:33:00,
2013-03-24 05:34:00,44.2,29.1,29.20,SSE,164,0.0,0.0,55,0.00,,---,0.00,VWS V14.00,2013-03-24 12:34:00,
2013-03-24 05:35:00,44.2,29.1,29.20,SSE,164,0.0,0.0,55,0.00,,---,0.00,VWS V14.00,2013-03-24 12:35:00,
2013-03-24 05:36:00,44.2,29.1,29.20,SSE,164,0.0,0.0,55,0.00,,---,0.00,VWS V14.00,2013-03-24 12:36:00,
2013-03-24 05:37:00,44.2,29.1,29.20,SSE,164,0.0,0.0,55,0.00,,---,0.00,VWS V14.00,2013-03-24 12:37:00,
2013-03-24 05:38:00,44.2,29.1,29.21,SSE,164,0.0,0.0,55,0.00,,---,0.00,VWS V14.00,2013-03-24 12:38:00,
2013-03-24 05:39:00,44.2,29.1,29.20,SSE,164,0.0,0.0,55,0.00,,---,0.00,VWS V14.00,2013-03-24 12:39:00,
2013-03-24 05:40:00,44.2,29.1,29.20,SSE,164,0.0,0.0,55,0.00,,---,0.00,VWS V14.00,2013-03-24 12:40:00,
2013-03-24 05:41:00,44.2,29.1,29.20,SSE,164,0.0,0.0,55,0.00,,---,0.00,VWS V14.00,2013-03-24 12:41:00,
2013-03-24 05:42:00,44.2,29.1,29.20,SSE,164,0.0,0.0,55,0.00,,---,0.00,VWS V14.00,2013-03-24 12:42:00,
2013-03-24 05:43:00,44.2,29.1,29.20,SSE,164,0.0,0.0,55,0.00,,---,0.00,VWS V14.00,2013-03-24 12:43:00,
2013-03-24 05:44:00,44.1,29.4,29.21,SSE,164,0.0,0.0,56,0.00,,---,0.00,VWS V14.00,2013-03-24 12:44:00,
2013-03-24 05:45:00,44.2,29.1,29.20,SSE,164,0.0,0.0,55,0.00,,---,0.00,VWS V14.00,2013-03-24 12:45:00,
2013-03-24 05:46:00,44.2,29.1,29.20,SSE,164,0.0,0.0,55,0.00,,---,0.00,VWS V14.00,2013-03-24 12:46:00,
2013-03-24 05:47:00,44.2,29.1,29.20,SSE,164,0.0,0.0,55,0.00,,---,0.00,VWS V14.00,2013-03-24 12:47:00,
2013-03-24 05:48:00,44.2,29.1,29.20,SSE,164,0.0,0.0,55,0.00,,---,0.00,VWS V14.00,2013-03-24 12:48:00,
2013-03-24 05:49:00,44.1,29.4,29.21,SSE,164,0.0,0.0,56,0.00,,---,0.00,VWS V14.00,2013-03-24 12:49:00,
2013-03-24 05:50:00,44.1,29.4,29.20,SSE,164,0.0,0.0,56,0.00,,---,0.00,VWS V14.00,2013-03-24 12:50:00,
2013-03-24 05:51:00,44.1,29.4,29.20,SSE,164,0.0,0.0,56,0.00,,---,0.00,VWS V14.00,2013-03-24 12:51:00,
2013-03-24 05:52:00,44.1,29.4,29.20,SSE,164,0.0,0.0,56,0.00,,---,0.00,VWS V14.00,2013-03-24 12:52:00,
2013-03-24 05:53:00,44.1,29.4,29.20,SSE,164,0.0,0.0,56,0.00,,---,0.00,VWS V14.00,2013-03-24 12:53:00,
2013-03-24 05:54:00,43.9,29.2,29.21,SSE,164,0.0,0.0,56,0.00,,---,0.00,VWS V14.00,2013-03-24 12:54:00,
2013-03-24 05:55:00,44.1,29.4,29.20,SSE,164,0.0,0.0,56,0.00,,---,0.00,VWS V14.00,2013-03-24 12:55:00,
2013-03-24 05:56:00,44.1,29.4,29.20,SSE,164,0.0,0.0,56,0.00,,---,0.00,VWS V14.00,2013-03-24 12:56:00,
2013-03-24 05:57:00,44.1,29.4,29.20,SSE,164,0.0,0.0,56,0.00,,---,0.00,VWS V14.00,2013-03-24 12:57:00,
2013-03-24 05:58:00,44.1,29.4,29.20,SSE,164,0.0,0.0,56,0.00,,---,0.00,VWS V14.00,2013-03-24 12:58:00,
2013-03-24 05:59:00,43.9,29.2,29.20,SSE,164,0.0,0.0,56,0.00,,---,0.00,VWS V14.00,2013-03-24 12:59:00,
2013-03-24 06:00:00,43.7,29.0,29.18,SSE,164,0.0,0.0,56,0.00,,---,0.00,VWS V14.00,2013-03-24 13:00:00,
2013-03-24 06:01:00,43.9,29.2,29.20,SSE,164,0.0,0.0,56,0.00,,---,0.00,VWS V14.00,2013-03-24 13:01:00,
2013-03-24 06:02:00,43.9,29.2,29.18,SSE,164,0.0,0.0,56,0.00,,---,0.00,VWS V14.00,2013-03-24 13:02:00,
2013-03-24 06:03:00,43.9,29.2,29.18,SSE,164,0.0,0.0,56,0.00,,---,0.00,VWS V14.00,2013-03-24 13:03:00,
2013-03-24 06:04:00,43.7,29.0,29.18,SSE,164,0.0,0.0,56,0.00,,---,0.00,VWS V14.00,2013-03-24 13:04:00,
2013-03-24 06:05:00,43.7,29.0,29.18,SSE,164,0.0,0.0,56,0.00,,---,0.00,VWS V14.00,2013-03-24 13:05:00,
2013-03-24 06:06:00,43.7,29.0,29.18,SSE,164,0.0,0.0,56,0.00,,---,0.00,VWS V14.00,2013-03-24 13:06:00,
2013-03-24 06:07:00,43.7,29.0,29.18,SSE,164,0.0,0.0,56,0.00,,---,0.00,VWS V14.00,2013-03-24 13:07:00,
2013-03-24 06:08:00,43.7,29.0,29.18,SSE,164,0.0,0.0,56,0.00,,---,0.00,VWS V14.00,2013-03-24 13:08:00,
2013-03-24 06:09:00,43.7,29.0,29.18,SSE,164,0.0,0.0,56,0.00,,---,0.00,VWS V14.00,2013-03-24 13:09:00,
2013-03-24 06:10:00,43.7,29.0,29.18,SSE,164,0.0,0.0,56,0.00,,---,0.00,VWS V14.00,2013-03-24 13:10:00,
2013-03-24 06:11:00,43.7,29.0,29.18,SSE,164,0.0,0.0,56,0.00,,---,0.00,VWS V14.00,2013-03-24 13:11:00,
2013-03-24 06:12:00,43.7,29.0,29.21,SSE,164,0.0,0.0,56,0.00,,---,0.00,VWS V14.00,2013-03-24 13:12:00,
2013-03-24 06:13:00,43.7,29.0,29.18,SSE,164,0.0,0.0,56,0.00,,---,0.00,VWS V14.00,2013-03-24 13:13:00,
2013-03-24 06:14:00,43.7,29.0,29.18,SSE,164,0.0,0.0,56,0.00,,---,0.00,VWS V14.00,2013-03-24 13:14:00,
2013-03-24 06:15:00,43.7,29.0,29.18,SSE,164,0.0,0.0,56,0.00,,---,0.00,VWS V14.00,2013-03-24 13:15:00,
2013-03-24 06:16:00,43.7,29.0,29.20,SSE,164,0.0,0.0,56,0.00,,---,0.00,VWS V14.00,2013-03-24 13:16:00,
2013-03-24 06:17:00,43.7,29.0,29.20,SSE,164,0.0,0.0,56,0.00,,---,0.00,VWS V14.00,2013-03-24 13:17:00,
2013-03-24 06:18:00,43.7,29.0,29.21,SSE,164,0.0,0.0,56,0.00,,---,0.00,VWS V14.00,2013-03-24 13:18:00,
2013-03-24 06:19:00,43.7,29.0,29.20,SSE,164,0.0,0.0,56,0.00,,---,0.00,VWS V14.00,2013-03-24 13:19:00,
2013-03-24 06:20:00,43.7,29.0,29.20,SSE,164,0.0,0.0,56,0.00,,---,0.00,VWS V14.00,2013-03-24 13:20:00,
2013-03-24 06:21:00,43.7,29.0,29.20,SSE,164,0.0,0.0,56,0.00,,---,0.00,VWS V14.00,2013-03-24 13:21:00,
2013-03-24 06:22:00,43.7,29.5,29.21,SSE,164,0.0,0.0,57,0.00,,---,0.00,VWS V14.00,2013-03-24 13:22:00,
2013-03-24 06:23:00,43.7,29.0,29.20,SSE,164,0.0,0.0,56,0.00,,---,0.00,VWS V14.00,2013-03-24 13:23:00,
2013-03-24 06:24:00,43.7,29.0,29.20,SSE,164,0.0,0.0,56,0.00,,---,0.00,VWS V14.00,2013-03-24 13:24:00,
2013-03-24 06:25:00,43.7,29.0,29.20,SSE,164,0.0,0.0,56,0.00,,---,0.00,VWS V14.00,2013-03-24 13:25:00,
2013-03-24 06:26:00,43.7,29.0,29.20,SSE,164,0.0,0.0,56,0.00,,---,0.00,VWS V14.00,2013-03-24 13:26:00,
2013-03-24 06:27:00,43.7,29.0,29.20,SSE,164,0.0,0.0,56,0.00,,---,0.00,VWS V14.00,2013-03-24 13:27:00,
2013-03-24 06:28:00,44.1,29.8,29.21,SSE,164,0.0,0.0,57,0.00,,---,0.00,VWS V14.00,2013-03-24 13:28:00,
2013-03-24 06:29:00,43.7,29.5,29.20,SSE,164,0.0,0.0,57,0.00,,---,0.00,VWS V14.00,2013-03-24 13:29:00,
2013-03-24 06:31:00,43.9,29.6,29.20,SSE,164,0.0,0.0,57,0.00,,---,0.00,VWS V14.00,2013-03-24 13:31:00,
2013-03-24 06:32:00,43.9,29.6,29.20,SSE,164,0.0,0.0,57,0.00,,---,0.00,VWS V14.00,2013-03-24 13:32:00,
2013-03-24 06:33:00,44.1,29.8,29.21,SSE,164,0.0,0.0,57,0.00,,---,0.00,VWS V14.00,2013-03-24 13:33:00,
2013-03-24 06:34:00,44.1,29.8,29.20,SSE,164,0.0,0.0,57,0.00,,---,0.00,VWS V14.00,2013-03-24 13:34:00,
2013-03-24 06:35:00,44.1,29.8,29.20,SSE,164,0.0,0.0,57,0.00,,---,0.00,VWS V14.00,2013-03-24 13:35:00,
2013-03-24 06:36:00,44.1,29.8,29.20,SSE,164,0.0,0.0,57,0.00,,---,0.00,VWS V14.00,2013-03-24 13:36:00,
2013-03-24 06:37:00,44.1,29.8,29.20,SSE,164,0.0,0.0,57,0.00,,---,0.00,VWS V14.00,2013-03-24 13:37:00,
2013-03-24 06:38:00,44.1,29.8,29.20,SSE,164,0.0,0.0,57,0.00,,---,0.00,VWS V14.00,2013-03-24 13:38:00,
2013-03-24 06:39:00,44.1,29.8,29.21,SSE,164,0.0,0.0,57,0.00,,---,0.00,VWS V14.00,2013-03-24 13:39:00,
2013-03-24 06:40:00,44.1,29.8,29.20,SSE,164,0.0,0.0,57,0.00,,---,0.00,VWS V14.00,2013-03-24 13:40:00,
2013-03-24 06:41:00,44.1,29.8,29.20,SSE,164,0.0,0.0,57,0.00,,---,0.00,VWS V14.00,2013-03-24 13:41:00,
2013-03-24 06:42:00,44.2,30.0,29.20,SSE,164,0.0,0.0,57,0.00,,---,0.00,VWS V14.00,2013-03-24 13:42:00,
2013-03-24 06:43:00,44.2,30.0,29.20,SSE,164,0.0,0.0,57,0.00,,---,0.00,VWS V14.00,2013-03-24 13:43:00,
2013-03-24 06:44:00,44.1,29.8,29.21,SSE,164,0.0,0.0,57,0.00,,---,0.00,VWS V14.00,2013-03-24 13:44:00,
2013-03-24 06:45:00,44.1,29.8,29.20,SSE,164,0.0,0.0,57,0.00,,---,0.00,VWS V14.00,2013-03-24 13:45:00,
2013-03-24 06:46:00,44.1,29.8,29.20,SSE,164,0.0,0.0,57,0.00,,---,0.00,VWS V14.00,2013-03-24 13:46:00,
2013-03-24 06:47:00,44.1,29.8,29.20,SSE,164,0.0,0.0,57,0.00,,---,0.00,VWS V14.00,2013-03-24 13:47:00,
2013-03-24 06:48:00,44.1,29.8,29.20,SSE,164,0.0,0.0,57,0.00,,---,0.00,VWS V14.00,2013-03-24 13:48:00,
2013-03-24 06:49:00,44.1,29.8,29.20,SSE,164,0.0,0.0,57,0.00,,---,0.00,VWS V14.00,2013-03-24 13:49:00,
2013-03-24 06:50:00,43.9,29.6,29.21,SSE,164,0.0,0.0,57,0.00,,---,0.00,VWS V14.00,2013-03-24 13:50:00,
2013-03-24 06:51:00,44.1,29.8,29.20,SSE,164,0.0,0.0,57,0.00,,---,0.00,VWS V14.00,2013-03-24 13:51:00,
2013-03-24 06:52:00,43.9,29.6,29.20,SSE,164,0.0,0.0,57,0.00,,---,0.00,VWS V14.00,2013-03-24 13:52:00,
2013-03-24 06:53:00,43.9,29.6,29.20,SSE,164,0.0,0.0,57,0.00,,---,0.00,VWS V14.00,2013-03-24 13:53:00,
2013-03-24 06:54:00,43.9,29.6,29.20,SSE,164,0.0,0.0,57,0.00,,---,0.00,VWS V14.00,2013-03-24 13:54:00,
2013-03-24 06:55:00,43.7,29.5,29.21,SSE,164,0.0,0.0,57,0.00,,---,0.00,VWS V14.00,2013-03-24 13:55:00,
2013-03-24 06:56:00,43.9,29.6,29.20,SSE,164,0.0,0.0,57,0.00,,---,0.00,VWS V14.00,2013-03-24 13:56:00,
2013-03-24 06:57:00,43.9,29.6,29.20,SSE,164,0.0,0.0,57,0.00,,---,0.00,VWS V14.00,2013-03-24 13:57:00,
2013-03-24 06:58:00,43.9,29.6,29.20,SSE,164,0.0,0.0,57,0.00,,---,0.00,VWS V14.00,2013-03-24 13:58:00,
2013-03-24 06:59:00,43.9,29.6,29.20,SSE,164,0.0,0.0,57,0.00,,---,0.00,VWS V14.00,2013-03-24 13:59:00,
2013-03-24 07:01:00,43.9,29.6,29.20,SSE,164,0.0,0.0,57,0.00,,---,0.00,VWS V14.00,2013-03-24 14:01:00,
2013-03-24 07:02:00,43.7,29.5,29.21,SSE,164,0.0,0.0,57,0.00,,---,0.00,VWS V14.00,2013-03-24 14:02:00,
2013-03-24 07:05:00,43.7,29.5,29.20,SSE,164,0.0,0.0,57,0.00,,---,0.00,VWS V14.00,2013-03-24 14:05:00,
2013-03-24 07:06:00,43.7,29.5,29.20,SSE,164,0.0,0.0,57,0.00,,---,0.00,VWS V14.00,2013-03-24 14:06:00,
2013-03-24 07:07:00,43.5,29.3,29.21,SSE,164,0.0,0.0,57,0.00,,---,0.00,VWS V14.00,2013-03-24 14:07:00,
2013-03-24 07:08:00,43.7,29.5,29.20,SSE,164,0.0,0.0,57,0.00,,---,0.00,VWS V14.00,2013-03-24 14:08:00,
2013-03-24 07:09:00,43.7,29.5,29.20,SSE,164,0.0,0.0,57,0.00,,---,0.00,VWS V14.00,2013-03-24 14:09:00,
2013-03-24 07:10:00,43.7,29.5,29.20,SSE,164,0.0,0.0,57,0.00,,---,0.00,VWS V14.00,2013-03-24 14:10:00,
2013-03-24 07:11:00,43.7,29.5,29.20,SSE,164,0.0,0.0,57,0.00,,---,0.00,VWS V14.00,2013-03-24 14:11:00,
2013-03-24 07:12:00,43.5,29.3,29.21,SSE,164,0.0,0.0,57,0.00,,---,0.00,VWS V14.00,2013-03-24 14:12:00,
2013-03-24 07:13:00,43.5,29.3,29.20,SSE,164,0.0,0.0,57,0.00,,---,0.00,VWS V14.00,2013-03-24 14:13:00,
2013-03-24 07:14:00,43.5,29.3,29.20,SSE,164,0.0,0.0,57,0.00,,---,0.00,VWS V14.00,2013-03-24 14:14:00,
2013-03-24 07:15:00,43.5,29.3,29.20,SSE,164,0.0,0.0,57,0.00,,---,0.00,VWS V14.00,2013-03-24 14:15:00,
2013-03-24 07:16:00,43.5,29.3,29.20,SSE,164,0.0,0.0,57,0.00,,---,0.00,VWS V14.00,2013-03-24 14:16:00,
2013-03-24 07:17:00,43.5,29.3,29.20,SSE,164,0.0,0.0,57,0.00,,---,0.00,VWS V14.00,2013-03-24 14:17:00,
2013-03-24 07:18:00,43.5,28.9,29.21,SSE,164,0.0,0.0,56,0.00,,---,0.00,VWS V14.00,2013-03-24 14:18:00,
2013-03-24 07:19:00,43.5,29.3,29.20,SSE,164,0.0,0.0,57,0.00,,---,0.00,VWS V14.00,2013-03-24 14:19:00,
2013-03-24 07:20:00,43.5,29.3,29.20,SSE,164,0.0,0.0,57,0.00,,---,0.00,VWS V14.00,2013-03-24 14:20:00,
2013-03-24 07:21:00,43.5,29.3,29.20,SSE,164,0.0,0.0,57,0.00,,---,0.00,VWS V14.00,2013-03-24 14:21:00,
2013-03-24 07:22:00,43.5,29.3,29.20,SSE,164,0.0,0.0,57,0.00,,---,0.00,VWS V14.00,2013-03-24 14:22:00,
2013-03-24 07:23:00,43.5,28.9,29.21,SSE,164,0.0,0.0,56,0.00,,---,0.00,VWS V14.00,2013-03-24 14:23:00,
2013-03-24 07:24:00,43.5,28.9,29.20,SSE,164,0.0,0.0,56,0.00,,---,0.00,VWS V14.00,2013-03-24 14:24:00,
2013-03-24 07:25:00,43.5,28.9,29.20,SSE,164,0.0,0.0,56,0.00,,---,0.00,VWS V14.00,2013-03-24 14:25:00,
2013-03-24 07:26:00,43.5,28.9,29.20,SSE,164,0.0,0.0,56,0.00,,---,0.00,VWS V14.00,2013-03-24 14:26:00,
2013-03-24 07:27:00,43.5,28.9,29.20,SSE,164,0.0,0.0,56,0.00,,---,0.00,VWS V14.00,2013-03-24 14:27:00,
2013-03-24 07:28:00,43.5,28.9,29.21,SSE,164,0.0,0.0,56,0.00,,---,0.00,VWS V14.00,2013-03-24 14:28:00,
2013-03-24 07:29:00,43.5,28.9,29.20,SSE,164,0.0,0.0,56,0.00,,---,0.00,VWS V14.00,2013-03-24 14:29:00,
2013-03-24 07:30:00,43.5,28.9,29.20,SSE,164,0.0,0.0,56,0.00,,---,0.00,VWS V14.00,2013-03-24 14:30:00,
2013-03-24 07:31:00,43.5,28.9,29.20,SSE,164,0.0,0.0,56,0.00,,---,0.00,VWS V14.00,2013-03-24 14:31:00,
2013-03-24 07:32:00,43.5,28.9,29.20,SSE,164,0.0,0.0,56,0.00,,---,0.00,VWS V14.00,2013-03-24 14:32:00,
2013-03-24 07:33:00,43.5,28.9,29.20,SSE,164,0.0,0.0,56,0.00,,---,0.00,VWS V14.00,2013-03-24 14:33:00,
2013-03-24 07:34:00,43.5,28.9,29.21,SSE,164,0.0,0.0,56,0.00,,---,0.00,VWS V14.00,2013-03-24 14:34:00,
2013-03-24 07:35:00,43.5,28.9,29.20,SSE,164,0.0,0.0,56,0.00,,---,0.00,VWS V14.00,2013-03-24 14:35:00,
2013-03-24 07:36:00,43.5,28.9,29.20,SSE,164,0.0,0.0,56,0.00,,---,0.00,VWS V14.00,2013-03-24 14:36:00,
2013-03-24 07:37:00,43.5,28.9,29.20,SSE,164,0.0,0.0,56,0.00,,---,0.00,VWS V14.00,2013-03-24 14:37:00,
2013-03-24 07:38:00,43.5,28.9,29.20,SSE,164,0.0,0.0,56,0.00,,---,0.00,VWS V14.00,2013-03-24 14:38:00,
2013-03-24 07:39:00,43.7,29.5,29.21,SSE,164,0.0,0.0,57,0.00,,---,0.00,VWS V14.00,2013-03-24 14:39:00,
2013-03-24 07:40:00,43.5,28.9,29.20,SSE,164,0.0,0.0,56,0.00,,---,0.00,VWS V14.00,2013-03-24 14:40:00,
2013-03-24 07:41:00,43.7,29.0,29.20,SSE,164,0.0,0.0,56,0.00,,---,0.00,VWS V14.00,2013-03-24 14:41:00,
2013-03-24 07:42:00,43.7,29.0,29.20,SSE,164,0.0,0.0,56,0.00,,---,0.00,VWS V14.00,2013-03-24 14:42:00,
2013-03-24 07:43:00,43.7,29.0,29.20,SSE,164,0.0,0.0,56,0.00,,---,0.00,VWS V14.00,2013-03-24 14:43:00,
2013-03-24 07:44:00,43.7,29.0,29.20,SSE,164,0.0,0.0,56,0.00,,---,0.00,VWS V14.00,2013-03-24 14:44:00,
2013-03-24 07:45:00,43.7,29.0,29.20,SSE,164,0.0,0.0,56,0.00,,---,0.00,VWS V14.00,2013-03-24 14:45:00,
2013-03-24 07:46:00,43.7,29.5,29.20,SSE,164,0.0,0.0,57,0.00,,---,0.00,VWS V14.00,2013-03-24 14:46:00,
2013-03-24 07:47:00,43.7,29.5,29.21,SSE,164,0.0,0.0,57,0.00,,---,0.00,VWS V14.00,2013-03-24 14:47:00,
2013-03-24 07:49:00,43.7,29.5,29.20,SSE,164,0.0,0.0,57,0.00,,---,0.00,VWS V14.00,2013-03-24 14:49:00,
2013-03-24 07:50:00,43.7,29.5,29.20,SSE,164,0.0,0.0,57,0.00,,---,0.00,VWS V14.00,2013-03-24 14:50:00,
2013-03-24 07:52:00,44.1,29.8,29.21,SSE,164,0.0,0.0,57,0.00,,---,0.00,VWS V14.00,2013-03-24 14:52:00,
2013-03-24 07:53:00,43.9,29.6,29.20,SSE,164,0.0,0.0,57,0.00,,---,0.00,VWS V14.00,2013-03-24 14:53:00,
2013-03-24 07:54:00,43.9,29.6,29.20,SSE,164,0.0,0.0,57,0.00,,---,0.00,VWS V14.00,2013-03-24 14:54:00,
2013-03-24 07:55:00,43.9,29.6,29.20,SSE,164,0.0,0.0,57,0.00,,---,0.00,VWS V14.00,2013-03-24 14:55:00,
2013-03-24 07:56:00,43.9,29.6,29.20,SSE,164,0.0,0.0,57,0.00,,---,0.00,VWS V14.00,2013-03-24 14:56:00,
2013-03-24 07:57:00,44.1,29.8,29.20,SSE,164,0.0,0.0,57,0.00,,---,0.00,VWS V14.00,2013-03-24 14:57:00,
2013-03-24 07:58:00,44.1,29.8,29.20,SSE,164,0.0,0.0,57,0.00,,---,0.00,VWS V14.00,2013-03-24 14:58:00,
2013-03-24 07:59:00,44.1,29.8,29.20,SSE,164,0.0,0.0,57,0.00,,---,0.00,VWS V14.00,2013-03-24 14:59:00,
2013-03-24 08:01:00,44.2,30.4,29.21,SSE,164,0.0,0.0,58,0.00,,---,0.00,VWS V14.00,2013-03-24 15:01:00,
2013-03-24 08:02:00,44.2,30.0,29.20,SSE,164,0.0,0.0,57,0.00,,---,0.00,VWS V14.00,2013-03-24 15:02:00,
2013-03-24 08:03:00,44.2,30.4,29.20,SSE,164,0.0,0.0,58,0.00,,---,0.00,VWS V14.00,2013-03-24 15:03:00,
2013-03-24 08:04:00,44.2,30.4,29.20,SSE,164,0.0,0.0,58,0.00,,---,0.00,VWS V14.00,2013-03-24 15:04:00,
2013-03-24 08:05:00,44.2,30.4,29.20,SSE,164,0.0,0.0,58,0.00,,---,0.00,VWS V14.00,2013-03-24 15:05:00,
2013-03-24 08:06:00,44.6,30.8,29.21,SSE,164,0.0,0.0,58,0.00,,---,0.00,VWS V14.00,2013-03-24 15:06:00,
2013-03-24 08:08:00,44.4,30.6,29.20,SSE,164,0.0,0.0,58,0.00,,---,0.00,VWS V14.00,2013-03-24 15:08:00,
2013-03-24 08:09:00,44.4,30.6,29.20,SSE,164,0.0,0.0,58,0.00,,---,0.00,VWS V14.00,2013-03-24 15:09:00,
2013-03-24 08:11:00,44.6,30.8,29.20,SSE,164,0.0,0.0,58,0.00,,---,0.00,VWS V14.00,2013-03-24 15:11:00,
2013-03-24 08:12:00,44.6,30.8,29.20,SSE,164,0.0,0.0,58,0.00,,---,0.00,VWS V14.00,2013-03-24 15:12:00,
2013-03-24 08:13:00,44.6,30.8,29.20,SSE,164,0.0,0.0,58,0.00,,---,0.00,VWS V14.00,2013-03-24 15:13:00,
2013-03-24 08:16:00,45.7,32.2,29.21,SSE,164,0.0,0.0,59,0.00,,---,0.00,VWS V14.00,2013-03-24 15:16:00,
2013-03-24 08:17:00,45.7,32.2,29.21,SSE,164,0.0,0.0,59,0.00,,---,0.00,VWS V14.00,2013-03-24 15:17:00,
2013-03-24 08:18:00,45.7,32.2,29.20,SSE,164,0.0,0.0,59,0.00,,---,0.00,VWS V14.00,2013-03-24 15:18:00,
2013-03-24 08:19:00,45.9,32.4,29.20,SSE,164,0.0,0.0,59,0.00,,---,0.00,VWS V14.00,2013-03-24 15:19:00,
2013-03-24 08:20:00,45.9,32.8,29.20,SSE,164,0.0,0.0,60,0.00,,---,0.00,VWS V14.00,2013-03-24 15:20:00,
2013-03-24 08:21:00,45.9,32.8,29.20,SSE,164,0.0,0.0,60,0.00,,---,0.00,VWS V14.00,2013-03-24 15:21:00,
2013-03-24 08:22:00,45.9,32.8,29.20,SSE,164,0.0,0.0,60,0.00,,---,0.00,VWS V14.00,2013-03-24 15:22:00,
2013-03-24 08:23:00,46.0,33.0,29.20,SSE,164,0.0,0.0,60,0.00,,---,0.00,VWS V14.00,2013-03-24 15:23:00,
2013-03-24 08:24:00,46.0,33.0,29.20,SSE,164,0.0,0.0,60,0.00,,---,0.00,VWS V14.00,2013-03-24 15:24:00,
2013-03-24 08:25:00,46.2,33.1,29.21,SSE,164,0.0,0.0,60,0.00,,---,0.00,VWS V14.00,2013-03-24 15:25:00,
2013-03-24 08:26:00,46.2,33.1,29.20,SSE,164,0.0,0.0,60,0.00,,---,0.00,VWS V14.00,2013-03-24 15:26:00,
2013-03-24 08:27:00,45.7,32.2,29.21,SSE,164,0.0,0.0,59,0.00,,---,0.00,VWS V14.00,2013-03-24 15:27:00,
2013-03-24 08:28:00,46.4,33.3,29.20,SSE,164,0.0,0.0,60,0.00,,---,0.00,VWS V14.00,2013-03-24 15:28:00,
2013-03-24 08:29:00,46.4,33.3,29.20,SSE,164,0.0,0.0,60,0.00,,---,0.00,VWS V14.00,2013-03-24 15:29:00,
2013-03-24 08:30:00,46.4,33.3,29.20,SSE,164,0.0,0.0,60,0.00,,---,0.00,VWS V14.00,2013-03-24 15:30:00,
2013-03-24 08:33:00,46.0,33.0,29.21,SSE,164,0.0,0.0,60,0.00,,---,0.00,VWS V14.00,2013-03-24 15:33:00,
2013-03-24 08:38:00,46.4,33.3,29.21,SSE,164,0.0,0.0,60,0.00,,---,0.00,VWS V14.00,2013-03-24 15:38:00,
2013-03-24 08:46:00,46.6,33.5,29.20,SSE,164,0.0,0.0,60,0.00,,---,0.00,VWS V14.00,2013-03-24 15:46:00,
2013-03-24 08:47:00,46.6,33.5,29.20,SSE,164,0.0,0.0,60,0.00,,---,0.00,VWS V14.00,2013-03-24 15:47:00,
2013-03-24 09:04:00,47.8,34.2,29.21,SSE,164,0.0,0.0,59,0.00,,---,0.00,VWS V14.00,2013-03-24 16:04:00,
2013-03-24 09:09:00,48.4,34.7,29.21,SSE,164,0.0,0.0,59,0.00,,---,0.00,VWS V14.00,2013-03-24 16:09:00,
2013-03-24 09:10:00,47.8,34.2,29.20,SSE,164,0.0,0.0,59,0.00,,---,0.00,VWS V14.00,2013-03-24 16:10:00,
2013-03-24 09:11:00,48.0,34.4,29.20,SSE,164,0.0,0.0,59,0.00,,---,0.00,VWS V14.00,2013-03-24 16:11:00,
2013-03-24 09:13:00,48.0,34.4,29.20,SSE,164,0.0,0.0,59,0.00,,---,0.00,VWS V14.00,2013-03-24 16:13:00,
2013-03-24 09:14:00,48.6,34.5,29.21,SSW,210,0.0,0.0,58,0.00,,---,0.00,VWS V14.00,2013-03-24 16:14:00,
2013-03-24 09:15:00,48.2,34.6,29.20,SSE,164,0.0,0.0,59,0.00,,---,0.00,VWS V14.00,2013-03-24 16:15:00,
2013-03-24 09:16:00,48.4,34.7,29.20,SSE,164,0.0,0.0,59,0.00,,---,0.00,VWS V14.00,2013-03-24 16:16:00,
2013-03-24 09:17:00,48.4,34.3,29.20,SSE,164,0.0,0.0,58,0.00,,---,0.00,VWS V14.00,2013-03-24 16:17:00,
2013-03-24 09:18:00,48.4,34.3,29.20,SSE,164,0.0,0.0,58,0.00,,---,0.00,VWS V14.00,2013-03-24 16:18:00,
2013-03-24 09:19:00,48.7,34.6,29.21,SSW,210,0.0,0.0,58,0.00,,---,0.00,VWS V14.00,2013-03-24 16:19:00,
2013-03-24 09:20:00,48.6,34.5,29.20,SSW,209,0.0,0.0,58,0.00,,---,0.00,VWS V14.00,2013-03-24 16:20:00,
2013-03-24 09:21:00,48.6,34.5,29.20,SSW,210,0.0,0.0,58,0.00,,---,0.00,VWS V14.00,2013-03-24 16:21:00,
2013-03-24 09:22:00,48.6,34.5,29.20,SSW,210,0.0,0.0,58,0.00,,---,0.00,VWS V14.00,2013-03-24 16:22:00,
2013-03-24 09:23:00,48.7,34.6,29.20,SSW,210,0.0,0.0,58,0.00,,---,0.00,VWS V14.00,2013-03-24 16:23:00,
2013-03-24 09:24:00,48.7,34.6,29.20,SSW,210,0.0,0.0,58,0.00,,---,0.00,VWS V14.00,2013-03-24 16:24:00,
2013-03-24 09:25:00,48.9,34.4,29.21,SSW,210,0.0,0.0,57,0.00,,---,0.00,VWS V14.00,2013-03-24 16:25:00,
2013-03-24 09:26:00,48.7,34.6,29.20,SSW,210,0.0,0.0,58,0.00,,---,0.00,VWS V14.00,2013-03-24 16:26:00,
2013-03-24 09:27:00,48.7,34.6,29.20,SSW,210,0.0,0.0,58,0.00,,---,0.00,VWS V14.00,2013-03-24 16:27:00,
2013-03-24 09:28:00,48.7,34.6,29.20,SSW,210,0.0,0.0,58,0.00,,---,0.00,VWS V14.00,2013-03-24 16:28:00,
2013-03-24 09:29:00,48.7,34.2,29.20,SSW,210,0.0,0.0,57,0.00,,---,0.00,VWS V14.00,2013-03-24 16:29:00,
2013-03-24 09:30:00,49.3,34.7,29.21,SSW,213,0.0,0.0,57,0.00,,---,0.00,VWS V14.00,2013-03-24 16:30:00,
2013-03-24 09:31:00,48.9,34.4,29.20,SSW,210,0.0,0.0,57,0.00,,---,0.00,VWS V14.00,2013-03-24 16:31:00,
2013-03-24 09:32:00,48.9,34.4,29.20,SSW,210,0.0,0.0,57,0.00,,---,0.00,VWS V14.00,2013-03-24 16:32:00,
2013-03-24 09:33:00,49.1,34.5,29.20,SSW,210,0.0,0.0,57,0.00,,---,0.00,VWS V14.00,2013-03-24 16:33:00,
2013-03-24 09:34:00,49.1,34.5,29.20,SSW,210,0.0,0.0,57,0.00,,---,0.00,VWS V14.00,2013-03-24 16:34:00,
2013-03-24 09:35:00,49.5,34.9,29.21,SW,214,0.0,0.0,57,0.00,,---,0.00,VWS V14.00,2013-03-24 16:35:00,
2013-03-24 09:36:00,49.3,34.7,29.20,SSW,213,0.0,0.0,57,0.00,,---,0.00,VWS V14.00,2013-03-24 16:36:00,
2013-03-24 09:37:00,49.3,34.7,29.20,SSW,213,0.0,0.0,57,0.00,,---,0.00,VWS V14.00,2013-03-24 16:37:00,
2013-03-24 09:38:00,49.3,34.7,29.20,SW,214,0.0,0.0,57,0.00,,---,0.00,VWS V14.00,2013-03-24 16:38:00,
2013-03-24 09:39:00,49.3,34.7,29.20,SW,214,0.0,0.0,57,0.00,,---,0.00,VWS V14.00,2013-03-24 16:39:00,
2013-03-24 09:40:00,49.8,35.7,29.21,SW,214,0.0,0.0,58,0.00,,---,0.00,VWS V14.00,2013-03-24 16:40:00,
2013-03-24 09:41:00,49.5,34.9,29.20,SW,214,0.0,0.0,57,0.00,,---,0.00,VWS V14.00,2013-03-24 16:41:00,
2013-03-24 09:42:00,49.5,34.9,29.20,SW,214,0.0,0.0,57,0.00,,---,0.00,VWS V14.00,2013-03-24 16:42:00,
2013-03-24 09:43:00,49.6,35.5,29.20,SW,214,0.0,0.0,58,0.00,,---,0.00,VWS V14.00,2013-03-24 16:43:00,
2013-03-24 09:44:00,49.6,35.5,29.20,SW,214,0.0,0.0,58,0.00,,---,0.00,VWS V14.00,2013-03-24 16:44:00,
2013-03-24 09:45:00,50.2,36.0,29.21,SW,214,0.0,0.0,58,0.00,,---,0.00,VWS V14.00,2013-03-24 16:45:00,
2013-03-24 09:46:00,49.8,35.7,29.20,SW,214,0.0,0.0,58,0.00,,---,0.00,VWS V14.00,2013-03-24 16:46:00,
2013-03-24 09:47:00,49.8,35.7,29.20,SW,214,0.0,0.0,58,0.00,,---,0.00,VWS V14.00,2013-03-24 16:47:00,
2013-03-24 09:48:00,50.0,35.8,29.20,SW,214,0.0,0.0,58,0.00,,---,0.00,VWS V14.00,2013-03-24 16:48:00,
2013-03-24 09:49:00,50.0,35.8,29.20,SW,214,0.0,0.0,58,0.00,,---,0.00,VWS V14.00,2013-03-24 16:49:00,
2013-03-24 09:50:00,50.0,35.8,29.20,SW,214,0.0,0.0,58,0.00,,---,0.00,VWS V14.00,2013-03-24 16:50:00,
2013-03-24 09:51:00,50.5,36.3,29.21,SW,214,0.0,0.0,58,0.00,,---,0.00,VWS V14.00,2013-03-24 16:51:00,
2013-03-24 09:55:00,50.4,36.2,29.20,SW,214,0.0,0.0,58,0.00,,---,0.00,VWS V14.00,2013-03-24 16:55:00,
2013-03-24 09:56:00,50.4,36.2,29.20,SW,214,0.0,0.0,58,0.00,,---,0.00,VWS V14.00,2013-03-24 16:56:00,
2013-03-24 09:57:00,51.1,36.4,29.21,SW,214,0.0,0.0,57,0.00,,---,0.00,VWS V14.00,2013-03-24 16:57:00,
2013-03-24 09:58:00,50.5,36.3,29.20,SW,214,0.0,0.0,58,0.00,,---,0.00,VWS V14.00,2013-03-24 16:58:00,
2013-03-24 09:59:00,50.7,36.5,29.20,SW,214,0.0,0.0,58,0.00,,---,0.00,VWS V14.00,2013-03-24 16:59:00,
2013-03-24 10:01:00,50.7,36.5,29.20,SW,214,0.0,0.0,58,0.00,,---,0.00,VWS V14.00,2013-03-24 17:01:00,
2013-03-24 10:02:00,51.3,36.6,29.21,SW,214,0.0,0.0,57,0.00,,---,0.00,VWS V14.00,2013-03-24 17:02:00,
2013-03-24 10:05:00,51.1,36.4,29.20,SW,214,0.0,0.0,57,0.00,,---,0.00,VWS V14.00,2013-03-24 17:05:00,
2013-03-24 10:06:00,51.3,36.6,29.20,SW,214,0.0,0.0,57,0.00,,---,0.00,VWS V14.00,2013-03-24 17:06:00,
2013-03-24 10:07:00,51.6,36.5,29.21,SW,230,0.0,0.0,56,0.00,,---,0.00,VWS V14.00,2013-03-24 17:07:00,
2013-03-24 10:08:00,51.3,36.6,29.20,SW,214,0.0,0.0,57,0.00,,---,0.00,VWS V14.00,2013-03-24 17:08:00,
2013-03-24 10:09:00,51.3,36.6,29.20,SW,226,0.0,2.2,57,0.00,,---,0.00,VWS V14.00,2013-03-24 17:09:00,
2013-03-24 10:10:00,51.4,36.7,29.20,SW,229,0.0,0.0,57,0.00,,---,0.00,VWS V14.00,2013-03-24 17:10:00,
2013-03-24 10:11:00,51.4,36.7,29.20,SW,230,0.0,0.0,57,0.00,,---,0.00,VWS V14.00,2013-03-24 17:11:00,
2013-03-24 10:12:00,51.6,36.9,29.20,SW,230,0.0,0.0,57,0.00,,---,0.00,VWS V14.00,2013-03-24 17:12:00,
2013-03-24 10:13:00,51.6,36.5,29.20,SW,230,0.0,0.0,56,0.00,,---,0.00,VWS V14.00,2013-03-24 17:13:00,
2013-03-24 10:14:00,51.6,36.5,29.20,SW,230,0.0,0.0,56,0.00,,---,0.00,VWS V14.00,2013-03-24 17:14:00,
2013-03-24 10:15:00,51.8,36.6,29.20,SW,230,0.0,0.0,56,0.00,,---,0.00,VWS V14.00,2013-03-24 17:15:00,
2013-03-24 10:16:00,51.8,36.6,29.24,SW,230,0.0,0.0,56,0.00,,---,0.00,VWS V14.00,2013-03-24 17:16:00,
2013-03-24 10:17:00,51.8,36.6,29.24,SW,230,0.0,0.0,56,0.00,,---,0.00,VWS V14.00,2013-03-24 17:17:00,
2013-03-24 10:18:00,52.0,36.3,29.24,SW,230,0.0,0.0,55,0.00,,---,0.00,VWS V14.00,2013-03-24 17:18:00,
2013-03-24 10:19:00,52.0,36.3,29.24,SW,231,0.0,0.0,55,0.00,,---,0.00,VWS V14.00,2013-03-24 17:19:00,
2013-03-24 10:36:00,53.8,36.6,29.21,SW,233,0.0,0.0,52,0.00,,---,0.00,VWS V14.00,2013-03-24 17:36:00,
2013-03-24 10:42:00,54.3,36.1,29.21,SW,233,0.0,0.0,50,0.00,,---,0.00,VWS V14.00,2013-03-24 17:42:00,
2013-03-24 10:47:00,54.9,36.1,29.21,SW,235,0.0,0.0,49,0.00,,---,0.00,VWS V14.00,2013-03-24 17:47:00,
2013-03-24 10:53:00,55.4,36.1,29.21,SW,232,0.0,0.0,48,0.00,,---,0.00,VWS V14.00,2013-03-24 17:53:00,
2013-03-24 10:58:00,55.9,36.0,29.21,SW,235,0.0,0.0,47,0.00,,---,0.00,VWS V14.00,2013-03-24 17:58:00,
2013-03-24 11:04:00,56.3,35.8,29.21,SW,236,0.0,0.0,46,0.00,,---,0.00,VWS V14.00,2013-03-24 18:04:00,
2013-03-24 11:10:00,56.8,36.3,29.21,SW,231,0.0,0.0,46,0.00,,---,0.00,VWS V14.00,2013-03-24 18:10:00,
2013-03-24 11:16:00,57.2,34.9,29.21,SSW,205,0.0,0.0,43,0.00,,---,0.00,VWS V14.00,2013-03-24 18:16:00,
2013-03-24 11:22:00,57.7,34.2,29.21,WSW,239,0.0,0.0,41,0.00,,---,0.00,VWS V14.00,2013-03-24 18:22:00,
2013-03-24 11:28:00,58.1,33.9,29.21,WSW,240,0.0,0.0,40,0.00,,---,0.00,VWS V14.00,2013-03-24 18:28:00,
2013-03-24 11:34:00,58.6,34.4,29.21,WSW,240,0.0,0.0,40,0.00,,---,0.00,VWS V14.00,2013-03-24 18:34:00,
2013-03-24 11:48:00,60.1,34.4,29.21,SSE,168,0.0,0.0,38,0.00,,---,0.00,VWS V14.00,2013-03-24 18:48:00,
2013-03-24 11:54:00,60.4,34.1,29.21,SSW,194,0.0,0.0,37,0.00,,---,0.00,VWS V14.00,2013-03-24 18:54:00,
2013-03-24 11:59:00,60.8,33.7,29.21,SSW,198,0.0,0.0,36,0.00,,---,0.00,VWS V14.00,2013-03-24 18:59:00,
2013-03-24 12:04:00,61.3,34.2,29.21,SSW,198,0.0,0.0,36,0.00,,---,0.00,VWS V14.00,2013-03-24 19:04:00,
2013-03-24 12:09:00,61.9,34.7,29.21,WSW,253,0.0,2.2,36,0.00,,---,0.00,VWS V14.00,2013-03-24 19:09:00,
2013-03-24 12:14:00,62.2,35.0,29.21,SW,214,0.0,0.0,36,0.00,,---,0.00,VWS V14.00,2013-03-24 19:14:00,
2013-03-24 12:20:00,63.0,34.9,29.21,SW,214,0.0,0.0,35,0.00,,---,0.00,VWS V14.00,2013-03-24 19:20:00,
2013-03-24 12:26:00,63.5,35.4,29.21,SW,214,0.0,0.0,35,0.00,,---,0.00,VWS V14.00,2013-03-24 19:26:00,
2013-03-24 12:31:00,64.2,35.3,29.21,WSW,241,0.0,2.7,34,0.00,,---,0.00,VWS V14.00,2013-03-24 19:31:00,
2013-03-24 12:36:00,64.4,35.5,29.21,WSW,240,0.0,0.0,34,0.00,,---,0.00,VWS V14.00,2013-03-24 19:36:00,
2013-03-24 12:42:00,64.9,35.9,29.21,WSW,240,0.0,0.0,34,0.00,,---,0.00,VWS V14.00,2013-03-24 19:42:00,
2013-03-24 12:47:00,65.5,35.6,29.21,SSW,203,0.0,0.0,33,0.00,,---,0.00,VWS V14.00,2013-03-24 19:47:00,
2013-03-24 12:52:00,66.0,36.1,29.21,West,261,0.0,0.0,33,0.00,,---,0.00,VWS V14.00,2013-03-24 19:52:00,
2013-03-24 12:57:00,66.4,36.4,29.21,SSW,207,0.0,0.0,33,0.00,,---,0.00,VWS V14.00,2013-03-24 19:57:00,
2013-03-24 13:03:00,66.9,36.1,29.21,SSW,205,0.0,0.0,32,0.00,,---,0.00,VWS V14.00,2013-03-24 20:03:00,
2013-03-24 13:08:00,67.3,35.6,29.21,SSW,211,0.0,0.0,31,0.00,,---,0.00,VWS V14.00,2013-03-24 20:08:00,
2013-03-24 13:14:00,67.8,36.1,29.21,SSW,213,0.0,0.0,31,0.00,,---,0.00,VWS V14.00,2013-03-24 20:14:00,
2013-03-24 13:20:00,68.2,34.7,29.21,West,281,0.0,0.0,29,0.00,,---,0.00,VWS V14.00,2013-03-24 20:20:00,
2013-03-24 13:25:00,68.4,34.0,29.18,SSE,156,0.0,0.0,28,0.00,,---,0.00,VWS V14.00,2013-03-24 20:25:00,
2013-03-24 13:31:00,68.7,34.3,29.18,WNW,286,0.0,0.0,28,0.00,,---,0.00,VWS V14.00,2013-03-24 20:31:00,
2013-03-24 13:37:00,69.1,33.7,29.18,West,265,0.0,0.0,27,0.00,,---,0.00,VWS V14.00,2013-03-24 20:37:00,
2013-03-24 13:43:00,69.4,33.1,29.18,WSW,241,0.0,0.0,26,0.00,,---,0.00,VWS V14.00,2013-03-24 20:43:00,
2013-03-24 13:48:00,69.6,34.2,29.18,SSW,207,0.0,0.0,27,0.00,,---,0.00,VWS V14.00,2013-03-24 20:48:00,
2013-03-24 13:54:00,70.0,32.6,29.18,SSW,200,0.0,4.0,25,0.00,,---,0.00,VWS V14.00,2013-03-24 20:54:00,
2013-03-24 14:00:00,70.0,32.6,29.18,West,265,0.0,0.0,25,0.00,,---,0.00,VWS V14.00,2013-03-24 21:00:00,
2013-03-24 14:05:00,70.2,32.7,29.18,SSW,202,0.0,2.7,25,0.00,,---,0.00,VWS V14.00,2013-03-24 21:05:00,
2013-03-24 14:11:00,70.0,32.6,29.18,SSW,205,0.0,0.0,25,0.00,,---,0.00,VWS V14.00,2013-03-24 21:11:00,
2013-03-24 14:17:00,70.0,31.6,29.18,West,276,0.0,0.0,24,0.00,,---,0.00,VWS V14.00,2013-03-24 21:17:00,
2013-03-24 14:38:00,69.1,30.8,29.18,West,270,0.0,2.7,24,0.00,,---,0.00,VWS V14.00,2013-03-24 21:38:00,
2013-03-24 14:44:00,69.1,31.8,29.15,WSW,247,0.0,0.0,25,0.00,,---,0.00,VWS V14.00,2013-03-24 21:44:00,
2013-03-24 14:58:00,68.5,31.4,29.15,SSW,203,0.0,3.1,25,0.00,,---,0.00,VWS V14.00,2013-03-24 21:58:00,
2013-03-24 15:04:00,68.4,31.2,29.15,WNW,289,0.0,0.0,25,0.00,,---,0.00,VWS V14.00,2013-03-24 22:04:00,
2013-03-24 15:09:00,68.0,30.9,29.15,SE,135,0.0,0.0,25,0.00,,---,0.00,VWS V14.00,2013-03-24 22:09:00,
2013-03-24 15:14:00,67.8,30.7,29.15,SE,135,0.0,0.0,25,0.00,,---,0.00,VWS V14.00,2013-03-24 22:14:00,
2013-03-24 15:19:00,67.6,29.6,29.15,West,275,0.0,0.0,24,0.00,,---,0.00,VWS V14.00,2013-03-24 22:19:00,
2013-03-24 15:24:00,67.8,29.7,29.15,WSW,247,0.0,2.2,24,0.00,,---,0.00,VWS V14.00,2013-03-24 22:24:00,
2013-03-24 15:30:00,67.5,29.4,29.15,West,263,0.0,0.0,24,0.00,,---,0.00,VWS V14.00,2013-03-24 22:30:00,
2013-03-24 15:35:00,67.3,30.3,29.15,West,274,0.0,0.0,25,0.00,,---,0.00,VWS V14.00,2013-03-24 22:35:00,
2013-03-24 16:02:00,66.6,28.7,29.15,WSW,238,0.0,4.0,24,0.00,,---,0.00,VWS V14.00,2013-03-24 23:02:00,
2013-03-24 16:07:00,66.4,28.5,29.15,WSW,245,0.0,0.0,24,0.00,,---,0.00,VWS V14.00,2013-03-24 23:07:00,
2013-03-24 16:12:00,66.4,28.5,29.15,North,357,0.0,0.0,24,0.00,,---,0.00,VWS V14.00,2013-03-24 23:12:00,
2013-03-24 16:18:00,66.2,28.4,29.15,WSW,255,0.0,0.0,24,0.00,,---,0.00,VWS V14.00,2013-03-24 23:18:00,
2013-03-24 16:23:00,66.2,29.4,29.15,SSW,207,0.0,0.0,25,0.00,,---,0.00,VWS V14.00,2013-03-24 23:23:00,
2013-03-24 16:28:00,66.0,29.2,29.12,West,278,0.0,0.0,25,0.00,,---,0.00,VWS V14.00,2013-03-24 23:28:00,
2013-03-24 16:33:00,65.8,30.0,29.12,WNW,291,0.0,0.0,26,0.00,,---,0.00,VWS V14.00,2013-03-24 23:33:00,
2013-03-24 16:39:00,65.7,29.9,29.12,SSE,155,0.0,0.0,26,0.00,,---,0.00,VWS V14.00,2013-03-24 23:39:00,
2013-03-24 16:45:00,65.5,29.7,29.12,South,169,0.0,0.0,26,0.00,,---,0.00,VWS V14.00,2013-03-24 23:45:00,
2013-03-24 16:52:00,65.1,29.4,29.12,SSE,158,0.0,0.0,26,0.00,,---,0.00,VWS V14.00,2013-03-24 23:52:00,
2013-03-24 16:57:00,64.9,30.2,29.12,WNW,296,0.0,0.0,27,0.00,,---,0.00,VWS V14.00,2013-03-24 23:57:00,
2013-03-24 17:03:00,64.8,30.0,29.12,WNW,283,0.0,0.0,27,0.00,,---,0.00,VWS V14.00,2013-03-25 00:03:00,
2013-03-24 17:09:00,64.6,29.9,29.12,WNW,283,0.0,0.0,27,0.00,,---,0.00,VWS V14.00,2013-03-25 00:09:00,
2013-03-24 17:15:00,64.4,30.6,29.12,South,185,0.0,0.0,28,0.00,,---,0.00,VWS V14.00,2013-03-25 00:15:00,
2013-03-24 17:20:00,64.4,30.6,29.12,SW,232,0.0,0.0,28,0.00,,---,0.00,VWS V14.00,2013-03-25 00:20:00,
2013-03-24 17:25:00,64.2,31.3,29.12,WSW,251,0.0,0.0,29,0.00,,---,0.00,VWS V14.00,2013-03-25 00:25:00,
2013-03-24 17:30:00,64.2,31.3,29.12,WSW,247,0.0,0.0,29,0.00,,---,0.00,VWS V14.00,2013-03-25 00:30:00,
2013-03-24 17:35:00,64.2,31.3,29.12,West,278,0.0,0.0,29,0.00,,---,0.00,VWS V14.00,2013-03-25 00:35:00,
2013-03-24 17:41:00,63.9,31.0,29.12,West,277,0.0,0.0,29,0.00,,---,0.00,VWS V14.00,2013-03-25 00:41:00,
2013-03-24 17:46:00,63.7,30.9,29.12,West,277,0.0,0.0,29,0.00,,---,0.00,VWS V14.00,2013-03-25 00:46:00,
2013-03-24 17:56:00,63.5,30.7,29.12,West,267,0.0,0.0,29,0.00,,---,0.00,VWS V14.00,2013-03-25 00:56:00,
2013-03-24 18:13:00,62.4,31.4,29.12,West,267,0.0,0.0,31,0.00,,---,0.00,VWS V14.00,2013-03-25 01:13:00,
2013-03-24 18:18:00,62.2,31.2,29.12,West,267,0.0,0.0,31,0.00,,---,0.00,VWS V14.00,2013-03-25 01:18:00,
2013-03-24 18:24:00,61.9,31.7,29.12,West,280,0.0,0.0,32,0.00,,---,0.00,VWS V14.00,2013-03-25 01:24:00,
2013-03-24 18:38:00,61.0,32.4,29.12,West,280,0.0,0.0,34,0.00,,---,0.00,VWS V14.00,2013-03-25 01:38:00,
2013-03-24 18:44:00,60.4,32.0,29.12,WNW,284,0.0,0.0,34,0.00,,---,0.00,VWS V14.00,2013-03-25 01:44:00,
2013-03-24 18:49:00,60.1,31.6,29.12,WNW,282,0.0,0.0,34,0.00,,---,0.00,VWS V14.00,2013-03-25 01:49:00,
2013-03-24 19:06:00,58.6,31.1,29.12,WNW,282,0.0,0.0,35,0.00,,---,0.00,VWS V14.00,2013-03-25 02:06:00,
2013-03-24 19:12:00,58.3,31.5,29.12,WNW,282,0.0,0.0,36,0.00,,---,0.00,VWS V14.00,2013-03-25 02:12:00,
2013-03-24 19:17:00,57.7,31.0,29.12,WNW,282,0.0,0.0,36,0.00,,---,0.00,VWS V14.00,2013-03-25 02:17:00,
2013-03-24 19:22:00,57.4,30.7,29.12,WNW,282,0.0,0.0,36,0.00,,---,0.00,VWS V14.00,2013-03-25 02:22:00,
2013-03-24 19:27:00,56.8,30.9,29.12,WNW,282,0.0,0.0,37,0.00,,---,0.00,VWS V14.00,2013-03-25 02:27:00,
2013-03-24 19:33:00,56.3,30.4,29.12,WNW,282,0.0,0.0,37,0.00,,---,0.00,VWS V14.00,2013-03-25 02:33:00,
2013-03-24 19:39:00,55.8,29.9,29.12,WNW,282,0.0,0.0,37,0.00,,---,0.00,VWS V14.00,2013-03-25 02:39:00,
2013-03-24 19:45:00,55.4,30.2,29.12,WNW,282,0.0,0.0,38,0.00,,---,0.00,VWS V14.00,2013-03-25 02:45:00,
2013-03-24 19:50:00,55.0,29.9,29.12,WNW,282,0.0,0.0,38,0.00,,---,0.00,VWS V14.00,2013-03-25 02:50:00,
2013-03-24 19:55:00,54.7,30.2,29.12,WNW,282,0.0,0.0,39,0.00,,---,0.00,VWS V14.00,2013-03-25 02:55:00,
2013-03-24 20:02:00,54.1,29.8,29.12,WNW,282,0.0,0.0,39,0.00,,---,0.00,VWS V14.00,2013-03-25 03:02:00,
2013-03-24 20:07:00,54.0,30.2,29.12,WNW,282,0.0,0.0,40,0.00,,---,0.00,VWS V14.00,2013-03-25 03:07:00,
2013-03-24 20:14:00,53.4,30.3,29.12,WNW,282,0.0,0.0,41,0.00,,---,0.00,VWS V14.00,2013-03-25 03:14:00,
2013-03-24 20:19:00,53.1,30.0,29.12,WNW,282,0.0,0.0,41,0.00,,---,0.00,VWS V14.00,2013-03-25 03:19:00,
2013-03-24 20:25:00,52.7,30.3,29.12,WNW,282,0.0,0.0,42,0.00,,---,0.00,VWS V14.00,2013-03-25 03:25:00,
2013-03-24 20:31:00,52.3,30.5,29.12,WNW,282,0.0,0.0,43,0.00,,---,0.00,VWS V14.00,2013-03-25 03:31:00,
2013-03-24 20:36:00,52.0,30.8,29.12,WNW,282,0.0,0.0,44,0.00,,---,0.00,VWS V14.00,2013-03-25 03:36:00,
2013-03-24 20:42:00,51.6,31.0,29.12,WNW,282,0.0,0.0,45,0.00,,---,0.00,VWS V14.00,2013-03-25 03:42:00,
2013-03-24 20:47:00,51.4,31.4,29.12,WNW,282,0.0,0.0,46,0.00,,---,0.00,VWS V14.00,2013-03-25 03:47:00,
2013-03-24 20:53:00,51.3,31.2,29.12,WNW,282,0.0,0.0,46,0.00,,---,0.00,VWS V14.00,2013-03-25 03:53:00,
2013-03-24 20:59:00,51.1,31.0,29.12,WNW,282,0.0,0.0,46,0.00,,---,0.00,VWS V14.00,2013-03-25 03:59:00,
2013-03-24 21:00:00,51.1,31.0,29.12,WNW,282,0.0,0.0,46,0.00,,---,0.00,VWS V14.00,2013-03-25 04:00:00,
2013-03-24 21:04:00,50.9,31.4,29.12,WNW,282,0.0,0.0,47,0.00,,---,0.00,VWS V14.00,2013-03-25 04:04:00,
2013-03-24 21:06:00,50.7,31.2,29.12,WNW,282,0.0,0.0,47,0.00,,---,0.00,VWS V14.00,2013-03-25 04:06:00,
2013-03-24 21:11:00,50.5,31.1,29.12,WNW,282,0.0,0.0,47,0.00,,---,0.00,VWS V14.00,2013-03-25 04:11:00,
2013-03-24 21:17:00,50.4,30.9,29.12,WNW,282,0.0,0.0,47,0.00,,---,0.00,VWS V14.00,2013-03-25 04:17:00,
2013-03-24 21:22:00,50.2,31.3,29.12,WNW,282,0.0,0.0,48,0.00,,---,0.00,VWS V14.00,2013-03-25 04:22:00,
2013-03-24 21:43:00,49.8,31.9,29.15,WNW,282,0.0,0.0,50,0.00,,---,0.00,VWS V14.00,2013-03-25 04:43:00,
2013-03-24 21:48:00,49.8,31.9,29.15,WNW,282,0.0,0.0,50,0.00,,---,0.00,VWS V14.00,2013-03-25 04:48:00,
2013-03-24 21:54:00,49.6,32.3,29.15,WNW,282,0.0,0.0,51,0.00,,---,0.00,VWS V14.00,2013-03-25 04:54:00,
2013-03-24 22:00:00,49.6,32.3,29.15,WNW,282,0.0,0.0,51,0.00,,---,0.00,VWS V14.00,2013-03-25 05:00:00,
2013-03-24 22:04:00,49.6,32.3,29.15,WNW,282,0.0,0.0,51,0.00,,---,0.00,VWS V14.00,2013-03-25 05:04:00,
2013-03-24 22:09:00,49.5,32.1,29.15,WNW,282,0.0,0.0,51,0.00,,---,0.00,VWS V14.00,2013-03-25 05:09:00,
2013-03-24 22:26:00,48.9,32.6,29.15,WNW,282,0.0,0.0,53,0.00,,---,0.00,VWS V14.00,2013-03-25 05:26:00,
2013-03-24 22:32:00,48.7,32.8,29.15,WNW,282,0.0,0.0,54,0.00,,---,0.00,VWS V14.00,2013-03-25 05:32:00,
2013-03-24 22:37:00,48.7,32.8,29.15,WNW,282,0.0,0.0,54,0.00,,---,0.00,VWS V14.00,2013-03-25 05:37:00,
2013-03-24 22:44:00,48.6,32.7,29.15,WNW,282,0.0,0.0,54,0.00,,---,0.00,VWS V14.00,2013-03-25 05:44:00,
2013-03-24 22:49:00,48.2,32.8,29.15,WNW,282,0.0,0.0,55,0.00,,---,0.00,VWS V14.00,2013-03-25 05:49:00,
2013-03-24 22:55:00,48.2,33.3,29.15,WNW,282,0.0,0.0,56,0.00,,---,0.00,VWS V14.00,2013-03-25 05:55:00,
2013-03-24 23:02:00,48.0,33.5,29.15,WNW,282,0.0,0.0,57,0.00,,---,0.00,VWS V14.00,2013-03-25 06:02:00,
2013-03-24 23:07:00,48.0,34.0,29.15,WNW,282,0.0,0.0,58,0.00,,---,0.00,VWS V14.00,2013-03-25 06:07:00,
2013-03-24 23:12:00,47.8,33.8,29.15,WNW,282,0.0,0.0,58,0.00,,---,0.00,VWS V14.00,2013-03-25 06:12:00,
2013-03-24 23:18:00,47.7,34.0,29.15,WNW,282,0.0,0.0,59,0.00,,---,0.00,VWS V14.00,2013-03-25 06:18:00,
2013-03-24 23:24:00,47.5,33.9,29.15,WNW,282,0.0,0.0,59,0.00,,---,0.00,VWS V14.00,2013-03-25 06:24:00,
2013-03-24 23:29:00,47.5,34.3,29.15,WNW,282,0.0,0.0,60,0.00,,---,0.00,VWS V14.00,2013-03-25 06:29:00,
2013-03-24 23:34:00,47.3,34.1,29.15,WNW,282,0.0,0.0,60,0.00,,---,0.00,VWS V14.00,2013-03-25 06:34:00,
2013-03-24 23:40:00,47.3,34.5,29.15,WNW,282,0.0,0.0,61,0.00,,---,0.00,VWS V14.00,2013-03-25 06:40:00,
2013-03-24 23:45:00,47.3,34.5,29.15,WNW,282,0.0,0.0,61,0.00,,---,0.00,VWS V14.00,2013-03-25 06:45:00,
2013-03-24 23:51:00,47.1,34.8,29.15,WNW,282,0.0,0.0,62,0.00,,---,0.00,VWS V14.00,2013-03-25 06:51:00,
2013-03-24 23:57:00,47.1,34.8,29.15,WNW,282,0.0,0.0,62,0.00,,---,0.00,VWS V14.00,2013-03-25 06:57:00,